Wetterdaten: aktuell Dienstag, 11.12.2018 15:16
Datum Zeit Temp. A. Feuchte A. Luftdruck Regen Wind Richtung Richtung Sonnenschein UV-Index Solar Windchill Windben
11.12.2018 15:16 4.3 C 83 % 1023.4 mbar 0.00 mm 0.0 km/h W-SW 255 0 min 0.0 UV-I 62 W/m 4.3 C 0.0 km/h
11.12.2018 15:14 4.4 C 83 % 1023.4 mbar 0.00 mm 0.0 km/h W-SW 255 0 min 0.0 UV-I 63 W/m 4.4 C 0.0 km/h
11.12.2018 15:12 4.4 C 83 % 1023.5 mbar 0.00 mm 0.0 km/h W-SW 255 0 min 0.0 UV-I 70 W/m 4.4 C 0.0 km/h
11.12.2018 15:10 4.4 C 84 % 1023.4 mbar 0.00 mm 0.0 km/h W-SW 255 0 min 0.0 UV-I 77 W/m 4.4 C 0.0 km/h
11.12.2018 15:08 4.5 C 84 % 1023.5 mbar 0.00 mm 0.0 km/h W-SW 255 0 min 0.0 UV-I 81 W/m 4.5 C 0.0 km/h
11.12.2018 15:06 4.5 C 84 % 1023.5 mbar 0.00 mm 0.0 km/h W-SW 255 0 min 0.0 UV-I 86 W/m 4.5 C 0.0 km/h
11.12.2018 15:04 4.6 C 84 % 1023.5 mbar 0.00 mm 0.0 km/h W-SW 255 0 min 0.0 UV-I 90 W/m 4.6 C 0.0 km/h
11.12.2018 15:02 4.6 C 84 % 1023.5 mbar 0.00 mm 0.0 km/h W-SW 255 0 min 0.0 UV-I 91 W/m 4.6 C 0.0 km/h
11.12.2018 15:00 4.6 C 83 % 1023.5 mbar 0.00 mm 0.0 km/h W-SW 255 0 min 0.0 UV-I 91 W/m 4.6 C 0.0 km/h
11.12.2018 14:58 4.6 C 82 % 1023.5 mbar 0.00 mm 0.0 km/h W-SW 255 0 min 0.0 UV-I 93 W/m 4.6 C 0.0 km/h
11.12.2018 14:56 4.6 C 81 % 1023.4 mbar 0.00 mm 0.0 km/h W-SW 255 0 min 0.0 UV-I 93 W/m 4.6 C 0.0 km/h
11.12.2018 14:54 4.6 C 80 % 1023.5 mbar 0.00 mm 1.5 km/h W-SW 255 0 min 0.0 UV-I 91 W/m 4.6 C 3.2 km/h
11.12.2018 14:52 4.6 C 80 % 1023.5 mbar 0.00 mm 1.9 km/h W-SW 255 0 min 0.0 UV-I 90 W/m 4.6 C 3.2 km/h
11.12.2018 14:50 4.6 C 80 % 1023.5 mbar 0.00 mm 2.4 km/h W-SW 255 0 min 0.0 UV-I 88 W/m 4.6 C 3.2 km/h
11.12.2018 14:48 4.6 C 80 % 1023.5 mbar 0.00 mm 3.2 km/h W-SW 255 0 min 0.0 UV-I 83 W/m 4.6 C 4.8 km/h
11.12.2018 14:46 4.6 C 79 % 1023.5 mbar 0.00 mm 2.8 km/h W-SW 255 0 min 0.0 UV-I 77 W/m 4.6 C 4.8 km/h
11.12.2018 14:44 4.7 C 79 % 1023.5 mbar 0.00 mm 3.4 km/h W-SW 255 0 min 0.0 UV-I 76 W/m 4.7 C 4.8 km/h
11.12.2018 14:42 4.7 C 79 % 1023.5 mbar 0.00 mm 4.4 km/h W-SW 255 0 min 0.0 UV-I 79 W/m 4.7 C 4.8 km/h
11.12.2018 14:40 4.8 C 79 % 1023.5 mbar 0.00 mm 4.1 km/h W-SW 255 0 min 0.0 UV-I 76 W/m 4.8 C 4.8 km/h
11.12.2018 14:38 4.8 C 80 % 1023.5 mbar 0.00 mm 4.1 km/h W-NW 285 0 min 0.0 UV-I 74 W/m 4.8 C 4.8 km/h
11.12.2018 14:36 4.9 C 80 % 1023.5 mbar 0.00 mm 3.6 km/h N-NW 331 0 min 0.0 UV-I 74 W/m 4.9 C 4.8 km/h
11.12.2018 14:34 4.9 C 79 % 1023.5 mbar 0.00 mm 2.8 km/h N-NW 333 0 min 0.0 UV-I 76 W/m 4.9 C 4.8 km/h
11.12.2018 14:32 4.9 C 78 % 1023.5 mbar 0.00 mm 1.5 km/h N-NW 333 0 min 0.0 UV-I 77 W/m 4.9 C 3.2 km/h
11.12.2018 14:30 4.9 C 77 % 1023.5 mbar 0.00 mm 2.5 km/h N-NW 333 0 min 0.0 UV-I 74 W/m 4.9 C 3.2 km/h
11.12.2018 14:28 4.9 C 77 % 1023.5 mbar 0.00 mm 3.1 km/h N-NW 333 0 min 0.0 UV-I 70 W/m 4.9 C 4.8 km/h
11.12.2018 14:26 4.9 C 77 % 1023.6 mbar 0.00 mm 2.8 km/h N-NW 334 0 min 0.0 UV-I 69 W/m 4.9 C 6.4 km/h
11.12.2018 14:24 4.9 C 77 % 1023.5 mbar 0.00 mm 1.6 km/h N-NW 339 0 min 0.0 UV-I 67 W/m 4.9 C 3.2 km/h
11.12.2018 14:22 5.0 C 78 % 1023.5 mbar 0.00 mm 1.9 km/h N-NW 339 0 min 0.0 UV-I 62 W/m 5.0 C 3.2 km/h
11.12.2018 14:20 4.9 C 77 % 1023.6 mbar 0.00 mm 1.4 km/h N-NW 339 0 min 0.0 UV-I 62 W/m 4.9 C 3.2 km/h
11.12.2018 14:18 4.9 C 76 % 1023.6 mbar 0.00 mm 0.1 km/h N-NW 339 0 min 0.0 UV-I 69 W/m 4.9 C 1.6 km/h
11.12.2018 14:16 4.9 C 76 % 1023.6 mbar 0.00 mm 0.0 km/h N-NW 339 0 min 0.0 UV-I 79 W/m 4.9 C 0.0 km/h
11.12.2018 14:14 4.9 C 77 % 1023.6 mbar 0.00 mm 0.0 km/h N-NW 339 0 min 0.0 UV-I 84 W/m 4.9 C 0.0 km/h
11.12.2018 14:12 4.9 C 77 % 1023.7 mbar 0.00 mm 0.0 km/h N-NW 339 0 min 0.0 UV-I 98 W/m 4.9 C 0.0 km/h
11.12.2018 14:10 4.9 C 76 % 1023.6 mbar 0.00 mm 0.5 km/h N-NW 339 0 min 0.0 UV-I 172 W/m 4.9 C 1.6 km/h
11.12.2018 14:08 4.9 C 77 % 1023.6 mbar 0.00 mm 1.1 km/h N-NW 339 0 min 0.0 UV-I 97 W/m 4.9 C 3.2 km/h
11.12.2018 14:06 4.9 C 78 % 1023.6 mbar 0.00 mm 4.2 km/h N-NW 339 0 min 0.0 UV-I 176 W/m 4.9 C 6.4 km/h
11.12.2018 14:04 4.9 C 79 % 1023.6 mbar 0.00 mm 5.6 km/h N-NW 339 0 min 0.0 UV-I 223 W/m 4.9 C 8.0 km/h
11.12.2018 14:02 4.8 C 80 % 1023.6 mbar 0.00 mm 3.4 km/h N-NW 330 0 min 0.0 UV-I 183 W/m 4.8 C 4.8 km/h
11.12.2018 14:00 4.8 C 79 % 1023.6 mbar 0.00 mm 2.5 km/h W-NW 282 0 min 0.0 UV-I 109 W/m 4.8 C 4.8 km/h
11.12.2018 13:58 4.8 C 79 % 1023.6 mbar 0.00 mm 2.5 km/h W-SW 254 0 min 0.0 UV-I 132 W/m 4.8 C 4.8 km/h
11.12.2018 13:56 4.8 C 79 % 1023.7 mbar 0.00 mm 0.9 km/h W-SW 254 0 min 0.0 UV-I 81 W/m 4.8 C 3.2 km/h
11.12.2018 13:54 4.8 C 79 % 1023.6 mbar 0.00 mm 1.1 km/h W-SW 254 0 min 0.0 UV-I 90 W/m 4.8 C 3.2 km/h
11.12.2018 13:52 4.8 C 79 % 1023.6 mbar 0.00 mm 0.4 km/h W-SW 254 0 min 0.0 UV-I 100 W/m 4.8 C 1.6 km/h
11.12.2018 13:50 4.7 C 79 % 1023.7 mbar 0.00 mm 0.8 km/h W-SW 254 0 min 0.0 UV-I 109 W/m 4.7 C 3.2 km/h
11.12.2018 13:48 4.7 C 78 % 1023.7 mbar 0.00 mm 2.7 km/h W-SW 254 0 min 0.0 UV-I 113 W/m 4.7 C 4.8 km/h
11.12.2018 13:46 4.7 C 79 % 1023.7 mbar 0.00 mm 1.9 km/h W-SW 254 0 min 0.0 UV-I 109 W/m 4.7 C 4.8 km/h
11.12.2018 13:44 4.7 C 80 % 1023.7 mbar 0.00 mm 0.8 km/h W-SW 254 0 min 0.0 UV-I 109 W/m 4.7 C 1.6 km/h
11.12.2018 13:42 4.7 C 80 % 1023.7 mbar 0.00 mm 1.7 km/h W-SW 254 0 min 0.0 UV-I 120 W/m 4.7 C 3.2 km/h
11.12.2018 13:40 4.7 C 79 % 1023.8 mbar 0.00 mm 1.9 km/h W-SW 254 0 min 0.0 UV-I 149 W/m 4.7 C 3.2 km/h
11.12.2018 13:38 4.7 C 79 % 1023.8 mbar 0.00 mm 2.4 km/h W-SW 254 0 min 0.0 UV-I 148 W/m 4.7 C 4.8 km/h
11.12.2018 13:36 4.7 C 79 % 1023.8 mbar 0.00 mm 1.8 km/h W-SW 254 0 min 0.0 UV-I 125 W/m 4.7 C 3.2 km/h
11.12.2018 13:34 4.7 C 80 % 1023.8 mbar 0.00 mm 1.9 km/h W-SW 254 0 min 0.0 UV-I 128 W/m 4.7 C 4.8 km/h
11.12.2018 13:32 4.7 C 80 % 1023.8 mbar 0.00 mm 3.4 km/h W-SW 254 0 min 0.0 UV-I 130 W/m 4.7 C 4.8 km/h
11.12.2018 13:30 4.6 C 81 % 1023.8 mbar 0.00 mm 2.1 km/h W-SW 250 0 min 0.0 UV-I 141 W/m 4.6 C 3.2 km/h
11.12.2018 13:28 4.6 C 80 % 1023.8 mbar 0.00 mm 1.3 km/h W-SW 247 0 min 0.0 UV-I 141 W/m 4.6 C 3.2 km/h
11.12.2018 13:26 4.6 C 81 % 1023.8 mbar 0.00 mm 2.0 km/h W-SW 247 0 min 0.0 UV-I 128 W/m 4.6 C 3.2 km/h
11.12.2018 13:24 4.6 C 82 % 1023.9 mbar 0.00 mm 1.7 km/h W-SW 247 0 min 0.0 UV-I 155 W/m 4.6 C 3.2 km/h
11.12.2018 13:22 4.5 C 81 % 1023.8 mbar 0.00 mm 2.9 km/h W-SW 247 0 min 0.0 UV-I 244 W/m 4.5 C 4.8 km/h
11.12.2018 13:20 4.5 C 81 % 1023.9 mbar 0.00 mm 5.2 km/h W-SW 247 0 min 0.0 UV-I 142 W/m 4.5 C 6.4 km/h
11.12.2018 13:18 4.5 C 82 % 1023.9 mbar 0.00 mm 5.0 km/h W-SW 244 2 min 0.0 UV-I 288 W/m 4.5 C 6.4 km/h
11.12.2018 13:16 4.6 C 82 % 1023.9 mbar 0.00 mm 6.4 km/h W-SW 239 0 min 0.0 UV-I 142 W/m 4.6 C 9.7 km/h
11.12.2018 13:14 4.6 C 82 % 1023.9 mbar 0.00 mm 6.7 km/h SW 235 0 min 0.0 UV-I 188 W/m 4.3 C 9.7 km/h
11.12.2018 13:12 4.7 C 82 % 1024.0 mbar 0.00 mm 7.6 km/h SW 228 0 min 0.0 UV-I 160 W/m 3.6 C 9.7 km/h
11.12.2018 13:10 4.7 C 81 % 1023.9 mbar 0.00 mm 5.7 km/h SW 218 0 min 0.0 UV-I 148 W/m 4.7 C 8.0 km/h
11.12.2018 13:08 4.7 C 81 % 1023.9 mbar 0.00 mm 7.4 km/h SW 219 0 min 0.0 UV-I 167 W/m 3.8 C 9.7 km/h
11.12.2018 13:06 4.7 C 81 % 1023.9 mbar 0.00 mm 6.0 km/h SW 226 0 min 0.0 UV-I 160 W/m 4.7 C 8.0 km/h
11.12.2018 13:04 4.7 C 81 % 1023.9 mbar 0.00 mm 3.0 km/h SW 226 0 min 0.5 UV-I 160 W/m 4.7 C 8.0 km/h
11.12.2018 13:02 4.7 C 82 % 1023.9 mbar 0.00 mm 4.0 km/h W-SW 258 0 min 0.5 UV-I 169 W/m 4.7 C 8.0 km/h
11.12.2018 13:00 4.7 C 83 % 1023.9 mbar 0.00 mm 6.3 km/h W 267 0 min 0.5 UV-I 176 W/m 4.7 C 9.7 km/h
11.12.2018 12:58 4.7 C 83 % 1024.0 mbar 0.00 mm 4.5 km/h W-SW 252 0 min 0.5 UV-I 183 W/m 4.7 C 6.4 km/h
11.12.2018 12:56 4.7 C 83 % 1024.0 mbar 0.00 mm 3.8 km/h S-SW 205 0 min 0.5 UV-I 188 W/m 4.7 C 6.4 km/h
11.12.2018 12:54 4.7 C 82 % 1024.1 mbar 0.00 mm 4.0 km/h SW 224 0 min 0.6 UV-I 199 W/m 4.7 C 6.4 km/h
11.12.2018 12:52 4.7 C 81 % 1024.0 mbar 0.00 mm 5.3 km/h SW 219 2 min 0.6 UV-I 334 W/m 4.7 C 8.0 km/h
11.12.2018 12:50 4.7 C 80 % 1024.0 mbar 0.00 mm 1.9 km/h N 3 2 min 0.7 UV-I 411 W/m 4.7 C 3.2 km/h
11.12.2018 12:48 4.6 C 77 % 1024.0 mbar 0.00 mm 1.7 km/h N 3 2 min 0.7 UV-I 309 W/m 4.6 C 3.2 km/h
11.12.2018 12:46 4.6 C 79 % 1024.0 mbar 0.00 mm 2.7 km/h N 3 0 min 0.6 UV-I 148 W/m 4.6 C 4.8 km/h
11.12.2018 12:44 4.6 C 78 % 1024.0 mbar 0.00 mm 2.8 km/h N 5 0 min 0.6 UV-I 195 W/m 4.6 C 4.8 km/h
11.12.2018 12:42 4.6 C 80 % 1024.1 mbar 0.00 mm 3.6 km/h N 3 0 min 0.6 UV-I 137 W/m 4.6 C 6.4 km/h
11.12.2018 12:40 4.6 C 80 % 1024.1 mbar 0.00 mm 2.9 km/h N 356 0 min 0.6 UV-I 125 W/m 4.6 C 4.8 km/h
11.12.2018 12:38 4.6 C 81 % 1024.1 mbar 0.00 mm 0.9 km/h NO 49 0 min 0.6 UV-I 162 W/m 4.6 C 4.8 km/h
11.12.2018 12:36 4.5 C 82 % 1024.1 mbar 0.00 mm 0.0 km/h NO 52 2 min 0.6 UV-I 338 W/m 4.5 C 0.0 km/h
11.12.2018 12:34 4.4 C 81 % 1024.2 mbar 0.00 mm 0.0 km/h NO 52 2 min 0.7 UV-I 323 W/m 4.4 C 0.0 km/h
11.12.2018 12:32 4.3 C 82 % 1024.1 mbar 0.00 mm 0.0 km/h NO 52 2 min 0.7 UV-I 381 W/m 4.3 C 0.0 km/h
11.12.2018 12:30 4.3 C 82 % 1024.1 mbar 0.00 mm 1.2 km/h NO 52 0 min 0.7 UV-I 221 W/m 4.3 C 3.2 km/h
11.12.2018 12:28 4.3 C 83 % 1024.2 mbar 0.00 mm 3.1 km/h NO 52 0 min 0.6 UV-I 144 W/m 4.3 C 4.8 km/h
11.12.2018 12:26 4.3 C 83 % 1024.2 mbar 0.00 mm 5.3 km/h NO 52 0 min 0.6 UV-I 109 W/m 4.3 C 6.4 km/h
11.12.2018 12:24 4.3 C 82 % 1024.2 mbar 0.00 mm 3.7 km/h N-NO 25 0 min 0.6 UV-I 151 W/m 4.3 C 4.8 km/h
11.12.2018 12:22 4.4 C 83 % 1024.2 mbar 0.00 mm 4.3 km/h N-NO 21 0 min 0.6 UV-I 151 W/m 4.4 C 6.4 km/h
11.12.2018 12:20 4.4 C 83 % 1024.2 mbar 0.00 mm 1.5 km/h N 8 0 min 0.6 UV-I 74 W/m 4.4 C 3.2 km/h
11.12.2018 12:18 4.4 C 83 % 1024.2 mbar 0.00 mm 3.1 km/h N 8 0 min 0.6 UV-I 102 W/m 4.4 C 4.8 km/h
11.12.2018 12:16 4.6 C 84 % 1024.2 mbar 0.00 mm 3.6 km/h N 10 2 min 0.7 UV-I 276 W/m 4.6 C 6.4 km/h
11.12.2018 12:14 4.6 C 84 % 1024.2 mbar 0.00 mm 3.3 km/h N-NO 19 2 min 0.7 UV-I 330 W/m 4.6 C 6.4 km/h
11.12.2018 12:12 4.4 C 85 % 1024.3 mbar 0.00 mm 2.2 km/h N 2 2 min 0.7 UV-I 330 W/m 4.4 C 3.2 km/h
11.12.2018 12:10 4.3 C 85 % 1024.3 mbar 0.00 mm 3.9 km/h N 2 2 min 0.7 UV-I 334 W/m 4.3 C 8.0 km/h
11.12.2018 12:08 4.2 C 84 % 1024.4 mbar 0.00 mm 1.3 km/h O-NO 73 2 min 0.7 UV-I 301 W/m 4.2 C 3.2 km/h
11.12.2018 12:06 4.2 C 84 % 1024.4 mbar 0.00 mm 0.2 km/h O-NO 73 2 min 0.7 UV-I 306 W/m 4.2 C 1.6 km/h
11.12.2018 12:04 4.2 C 84 % 1024.4 mbar 0.00 mm 1.6 km/h O-NO 73 0 min 0.6 UV-I 244 W/m 4.2 C 3.2 km/h
11.12.2018 12:02 4.2 C 85 % 1024.4 mbar 0.00 mm 1.8 km/h O-NO 73 0 min 0.6 UV-I 186 W/m 4.2 C 3.2 km/h
11.12.2018 12:00 4.2 C 86 % 1024.4 mbar 0.00 mm 1.5 km/h O-NO 72 0 min 0.6 UV-I 132 W/m 4.2 C 4.8 km/h
11.12.2018 11:58 4.1 C 85 % 1024.4 mbar 0.00 mm 2.6 km/h O-NO 72 0 min 0.6 UV-I 158 W/m 4.1 C 3.2 km/h
11.12.2018 11:56 4.1 C 85 % 1024.4 mbar 0.00 mm 3.2 km/h O-NO 72 0 min 0.6 UV-I 243 W/m 4.1 C 4.8 km/h
11.12.2018 11:54 4.1 C 85 % 1024.5 mbar 0.00 mm 4.2 km/h O-NO 72 0 min 0.6 UV-I 197 W/m 4.1 C 6.4 km/h
11.12.2018 11:52 4.1 C 84 % 1024.6 mbar 0.00 mm 2.1 km/h O 87 0 min 0.6 UV-I 98 W/m 4.1 C 4.8 km/h
11.12.2018 11:50 4.1 C 84 % 1024.6 mbar 0.00 mm 2.3 km/h O-SO 112 0 min 0.6 UV-I 262 W/m 4.1 C 4.8 km/h
11.12.2018 11:48 4.1 C 85 % 1024.6 mbar 0.00 mm 1.0 km/h O-SO 123 0 min 0.6 UV-I 262 W/m 4.1 C 3.2 km/h
11.12.2018 11:46 3.9 C 85 % 1024.6 mbar 0.00 mm 2.8 km/h O-SO 123 0 min 0.6 UV-I 156 W/m 3.9 C 4.8 km/h
11.12.2018 11:44 4.0 C 87 % 1024.7 mbar 0.00 mm 3.3 km/h O-SO 123 0 min 0.6 UV-I 90 W/m 4.0 C 4.8 km/h
11.12.2018 11:42 3.9 C 85 % 1024.7 mbar 0.00 mm 2.4 km/h O-SO 122 2 min 0.6 UV-I 308 W/m 3.9 C 4.8 km/h
11.12.2018 11:40 3.9 C 86 % 1024.7 mbar 0.00 mm 2.6 km/h SO 137 2 min 0.6 UV-I 290 W/m 3.9 C 4.8 km/h
11.12.2018 11:38 3.8 C 86 % 1024.8 mbar 0.00 mm 2.7 km/h SO 137 0 min 0.6 UV-I 267 W/m 3.8 C 4.8 km/h
11.12.2018 11:36 3.9 C 87 % 1024.8 mbar 0.00 mm 3.0 km/h SO 126 0 min 0.6 UV-I 230 W/m 3.9 C 4.8 km/h
11.12.2018 11:34 4.0 C 89 % 1024.9 mbar 0.00 mm 3.2 km/h O-SO 114 2 min 0.6 UV-I 290 W/m 4.0 C 4.8 km/h
11.12.2018 11:32 4.0 C 89 % 1024.9 mbar 0.00 mm 3.4 km/h O-SO 106 0 min 0.6 UV-I 227 W/m 4.0 C 4.8 km/h
11.12.2018 11:30 3.9 C 89 % 1024.9 mbar 0.00 mm 4.1 km/h O 91 0 min 0.6 UV-I 262 W/m 3.9 C 4.8 km/h
11.12.2018 11:28 4.0 C 90 % 1025.0 mbar 0.00 mm 4.2 km/h O-SO 106 0 min 0.6 UV-I 246 W/m 4.0 C 4.8 km/h
11.12.2018 11:26 4.1 C 89 % 1025.0 mbar 0.00 mm 2.5 km/h O 89 0 min 0.6 UV-I 202 W/m 4.1 C 3.2 km/h
11.12.2018 11:24 4.1 C 90 % 1025.0 mbar 0.00 mm 3.3 km/h O 89 0 min 0.6 UV-I 264 W/m 4.1 C 4.8 km/h
11.12.2018 11:22 4.0 C 91 % 1025.0 mbar 0.00 mm 3.6 km/h O 89 0 min 0.6 UV-I 264 W/m 4.0 C 4.8 km/h
11.12.2018 11:20 3.9 C 91 % 1025.0 mbar 0.00 mm 3.8 km/h O 89 0 min 0.5 UV-I 213 W/m 3.9 C 4.8 km/h
11.12.2018 11:18 3.9 C 93 % 1025.1 mbar 0.00 mm 4.1 km/h O 89 0 min 0.5 UV-I 209 W/m 3.9 C 4.8 km/h
11.12.2018 11:16 3.9 C 92 % 1025.1 mbar 0.00 mm 3.6 km/h O 91 0 min 0.5 UV-I 211 W/m 3.9 C 4.8 km/h
11.12.2018 11:14 3.8 C 93 % 1025.2 mbar 0.00 mm 2.9 km/h O 91 0 min 0.5 UV-I 188 W/m 3.8 C 4.8 km/h
11.12.2018 11:12 3.8 C 93 % 1025.2 mbar 0.00 mm 3.8 km/h O 91 0 min 0.5 UV-I 262 W/m 3.8 C 4.8 km/h
11.12.2018 11:10 3.7 C 93 % 1025.2 mbar 0.00 mm 4.8 km/h O 89 2 min 0.5 UV-I 287 W/m 3.7 C 6.4 km/h
11.12.2018 11:08 3.7 C 92 % 1025.3 mbar 0.00 mm 4.3 km/h O 96 2 min 0.5 UV-I 301 W/m 3.7 C 6.4 km/h
11.12.2018 11:06 3.6 C 92 % 1025.3 mbar 0.00 mm 3.6 km/h O 97 2 min 0.5 UV-I 304 W/m 3.6 C 4.8 km/h
11.12.2018 11:04 3.7 C 91 % 1025.3 mbar 0.00 mm 4.1 km/h O 99 2 min 0.5 UV-I 299 W/m 3.7 C 4.8 km/h
11.12.2018 11:02 3.8 C 93 % 1025.3 mbar 0.00 mm 4.0 km/h O-SO 112 2 min 0.5 UV-I 297 W/m 3.8 C 4.8 km/h
11.12.2018 11:00 3.6 C 92 % 1025.3 mbar 0.00 mm 2.8 km/h O-SO 116 2 min 0.5 UV-I 292 W/m 3.6 C 4.8 km/h
11.12.2018 10:58 3.6 C 94 % 1025.3 mbar 0.00 mm 3.7 km/h O-SO 118 2 min 0.5 UV-I 288 W/m 3.6 C 4.8 km/h
11.12.2018 10:56 3.4 C 94 % 1025.3 mbar 0.00 mm 0.9 km/h S 175 2 min 0.5 UV-I 288 W/m 3.4 C 1.6 km/h
11.12.2018 10:54 3.3 C 94 % 1025.4 mbar 0.00 mm 1.5 km/h S 180 2 min 0.5 UV-I 290 W/m 3.3 C 3.2 km/h
11.12.2018 10:52 3.2 C 95 % 1025.3 mbar 0.00 mm 1.3 km/h S 175 2 min 0.5 UV-I 283 W/m 3.2 C 3.2 km/h
11.12.2018 10:50 3.0 C 95 % 1025.3 mbar 0.00 mm 0.1 km/h S 180 0 min 0.0 UV-I 230 W/m 3.0 C 1.6 km/h
11.12.2018 10:48 2.9 C 96 % 1025.3 mbar 0.00 mm 0.1 km/h S 180 2 min 0.0 UV-I 294 W/m 2.9 C 1.6 km/h
11.12.2018 10:46 2.8 C 96 % 1025.4 mbar 0.00 mm 0.0 km/h S 180 2 min 0.0 UV-I 279 W/m 2.8 C 0.0 km/h
11.12.2018 10:44 2.8 C 96 % 1025.4 mbar 0.00 mm 0.7 km/h S 180 0 min 0.0 UV-I 239 W/m 2.8 C 1.6 km/h
11.12.2018 10:42 2.8 C 96 % 1025.5 mbar 0.00 mm 1.4 km/h S 180 0 min 0.0 UV-I 148 W/m 2.8 C 3.2 km/h
11.12.2018 10:40 2.8 C 96 % 1025.5 mbar 0.00 mm 1.8 km/h S 180 0 min 0.0 UV-I 105 W/m 2.8 C 3.2 km/h
11.12.2018 10:38 2.8 C 96 % 1025.5 mbar 0.00 mm 1.2 km/h S 180 0 min 0.0 UV-I 95 W/m 2.8 C 3.2 km/h
11.12.2018 10:36 2.8 C 96 % 1025.5 mbar 0.00 mm 3.0 km/h S 180 0 min 0.0 UV-I 79 W/m 2.8 C 4.8 km/h
11.12.2018 10:34 2.8 C 96 % 1025.4 mbar 0.00 mm 4.8 km/h S 180 0 min 0.0 UV-I 74 W/m 2.8 C 6.4 km/h
11.12.2018 10:32 2.8 C 96 % 1025.4 mbar 0.00 mm 3.7 km/h SW 217 0 min 0.0 UV-I 77 W/m 2.8 C 6.4 km/h
11.12.2018 10:30 2.7 C 96 % 1025.4 mbar 0.00 mm 2.6 km/h W-SW 254 0 min 0.0 UV-I 88 W/m 2.7 C 4.8 km/h
11.12.2018 10:28 2.7 C 96 % 1025.4 mbar 0.00 mm 0.7 km/h W-SW 254 0 min 0.0 UV-I 95 W/m 2.7 C 3.2 km/h
11.12.2018 10:26 2.7 C 96 % 1025.4 mbar 0.00 mm 0.0 km/h W-SW 254 0 min 0.0 UV-I 95 W/m 2.7 C 0.0 km/h
11.12.2018 10:24 2.6 C 96 % 1025.5 mbar 0.00 mm 0.0 km/h W-SW 253 0 min 0.0 UV-I 98 W/m 2.6 C 0.0 km/h
11.12.2018 10:22 2.6 C 96 % 1025.5 mbar 0.00 mm 0.0 km/h W-SW 253 0 min 0.0 UV-I 102 W/m 2.6 C 0.0 km/h
11.12.2018 10:20 2.5 C 96 % 1025.5 mbar 0.00 mm 0.0 km/h W-SW 254 0 min 0.0 UV-I 102 W/m 2.5 C 0.0 km/h
11.12.2018 10:18 2.4 C 96 % 1025.4 mbar 0.00 mm 0.0 km/h W-SW 254 0 min 0.0 UV-I 100 W/m 2.4 C 1.6 km/h
11.12.2018 10:16 2.4 C 96 % 1025.4 mbar 0.00 mm 1.1 km/h W-SW 253 0 min 0.0 UV-I 98 W/m 2.4 C 1.6 km/h
11.12.2018 10:14 2.4 C 96 % 1025.5 mbar 0.00 mm 1.2 km/h W-SW 253 0 min 0.0 UV-I 98 W/m 2.4 C 3.2 km/h
11.12.2018 10:12 2.3 C 96 % 1025.4 mbar 0.00 mm 0.0 km/h W-SW 254 0 min 0.0 UV-I 97 W/m 2.3 C 0.0 km/h
11.12.2018 10:10 2.3 C 96 % 1025.4 mbar 0.00 mm 0.0 km/h W-SW 253 0 min 0.0 UV-I 93 W/m 2.3 C 0.0 km/h
11.12.2018 10:08 2.3 C 96 % 1025.4 mbar 0.00 mm 0.0 km/h W-SW 253 0 min 0.0 UV-I 88 W/m 2.3 C 0.0 km/h
11.12.2018 10:06 2.2 C 96 % 1025.4 mbar 0.00 mm 0.0 km/h W-SW 253 0 min 0.0 UV-I 79 W/m 2.2 C 0.0 km/h
11.12.2018 10:04 2.2 C 96 % 1025.4 mbar 0.00 mm 0.0 km/h W-SW 253 0 min 0.0 UV-I 76 W/m 2.2 C 0.0 km/h
11.12.2018 10:02 2.2 C 96 % 1025.3 mbar 0.00 mm 0.0 km/h W-SW 253 0 min 0.0 UV-I 74 W/m 2.2 C 0.0 km/h
11.12.2018 10:00 2.1 C 96 % 1025.3 mbar 0.00 mm 0.0 km/h W-SW 254 0 min 0.0 UV-I 70 W/m 2.1 C 0.0 km/h
11.12.2018 09:58 2.1 C 96 % 1025.3 mbar 0.00 mm 0.0 km/h W-SW 254 0 min 0.0 UV-I 70 W/m 2.1 C 0.0 km/h
11.12.2018 09:56 2.1 C 96 % 1025.4 mbar 0.00 mm 0.0 km/h W-SW 253 0 min 0.0 UV-I 70 W/m 2.1 C 0.0 km/h
11.12.2018 09:54 2.0 C 96 % 1025.3 mbar 0.00 mm 0.0 km/h W-SW 254 0 min 0.0 UV-I 70 W/m 2.0 C 0.0 km/h
11.12.2018 09:52 2.0 C 96 % 1025.3 mbar 0.00 mm 0.1 km/h W-SW 253 0 min 0.0 UV-I 72 W/m 2.0 C 1.6 km/h
11.12.2018 09:50 1.9 C 96 % 1025.3 mbar 0.00 mm 0.5 km/h W-SW 253 0 min 0.0 UV-I 72 W/m 1.9 C 1.6 km/h
11.12.2018 09:48 1.9 C 96 % 1025.3 mbar 0.00 mm 0.0 km/h W-SW 254 0 min 0.0 UV-I 69 W/m 1.9 C 0.0 km/h
11.12.2018 09:46 1.9 C 96 % 1025.3 mbar 0.00 mm 0.0 km/h W-SW 254 0 min 0.0 UV-I 69 W/m 1.9 C 0.0 km/h
11.12.2018 09:44 1.8 C 96 % 1025.3 mbar 0.00 mm 0.0 km/h W-SW 254 0 min 0.0 UV-I 67 W/m 1.8 C 0.0 km/h
11.12.2018 09:42 1.8 C 96 % 1025.4 mbar 0.00 mm 0.0 km/h W-SW 253 0 min 0.0 UV-I 63 W/m 1.8 C 0.0 km/h
11.12.2018 09:40 1.8 C 96 % 1025.4 mbar 0.00 mm 0.0 km/h W-SW 254 0 min 0.0 UV-I 58 W/m 1.8 C 0.0 km/h
11.12.2018 09:38 1.8 C 96 % 1025.3 mbar 0.00 mm 0.1 km/h W-SW 253 0 min 0.0 UV-I 51 W/m 1.8 C 1.6 km/h
11.12.2018 09:36 1.7 C 96 % 1025.3 mbar 0.00 mm 0.0 km/h W-SW 254 0 min 0.0 UV-I 44 W/m 1.7 C 0.0 km/h
11.12.2018 09:34 1.7 C 96 % 1025.2 mbar 0.00 mm 1.4 km/h W-SW 254 0 min 0.0 UV-I 40 W/m 1.7 C 3.2 km/h
11.12.2018 09:32 1.7 C 96 % 1025.1 mbar 0.00 mm 1.6 km/h W-SW 253 0 min 0.0 UV-I 40 W/m 1.7 C 3.2 km/h
11.12.2018 09:30 1.7 C 96 % 1025.2 mbar 0.00 mm 2.4 km/h W-SW 253 0 min 0.0 UV-I 42 W/m 1.7 C 3.2 km/h
11.12.2018 09:28 1.7 C 96 % 1025.3 mbar 0.00 mm 4.0 km/h W-SW 253 0 min 0.0 UV-I 44 W/m 1.7 C 4.8 km/h
11.12.2018 09:26 1.6 C 96 % 1025.2 mbar 0.00 mm 3.4 km/h W-SW 254 0 min 0.0 UV-I 42 W/m 1.6 C 4.8 km/h
11.12.2018 09:24 1.6 C 96 % 1025.2 mbar 0.00 mm 3.1 km/h W-SW 254 0 min 0.0 UV-I 40 W/m 1.6 C 3.2 km/h
11.12.2018 09:22 1.6 C 96 % 1025.3 mbar 0.00 mm 3.3 km/h W-SW 254 0 min 0.0 UV-I 40 W/m 1.6 C 4.8 km/h
11.12.2018 09:20 1.6 C 96 % 1025.2 mbar 0.00 mm 3.0 km/h W-SW 253 0 min 0.0 UV-I 42 W/m 1.6 C 4.8 km/h
11.12.2018 09:18 1.6 C 96 % 1025.2 mbar 0.00 mm 1.7 km/h W-SW 253 0 min 0.0 UV-I 37 W/m 1.6 C 3.2 km/h
11.12.2018 09:16 1.5 C 96 % 1025.2 mbar 0.00 mm 1.8 km/h W-SW 254 0 min 0.0 UV-I 33 W/m 1.5 C 3.2 km/h
11.12.2018 09:14 1.5 C 96 % 1025.3 mbar 0.00 mm 2.2 km/h W-SW 254 0 min 0.0 UV-I 30 W/m 1.5 C 3.2 km/h
11.12.2018 09:12 1.5 C 96 % 1025.2 mbar 0.00 mm 2.7 km/h W-SW 254 0 min 0.0 UV-I 28 W/m 1.5 C 3.2 km/h
11.12.2018 09:10 1.4 C 96 % 1025.3 mbar 0.00 mm 2.1 km/h W-SW 254 0 min 0.0 UV-I 28 W/m 1.4 C 3.2 km/h
11.12.2018 09:08 1.4 C 96 % 1025.3 mbar 0.00 mm 2.4 km/h W-SW 254 0 min 0.0 UV-I 30 W/m 1.4 C 3.2 km/h
11.12.2018 09:06 1.4 C 96 % 1025.2 mbar 0.00 mm 3.4 km/h W-SW 254 0 min 0.0 UV-I 30 W/m 1.4 C 4.8 km/h
11.12.2018 09:04 1.4 C 96 % 1025.2 mbar 0.00 mm 4.4 km/h W-SW 254 0 min 0.0 UV-I 32 W/m 1.4 C 4.8 km/h
11.12.2018 09:02 1.4 C 96 % 1025.2 mbar 0.00 mm 4.1 km/h W-SW 254 0 min 0.0 UV-I 30 W/m 1.4 C 4.8 km/h
11.12.2018 09:00 1.4 C 96 % 1025.2 mbar 0.00 mm 1.0 km/h W-SW 254 0 min 0.0 UV-I 30 W/m 1.4 C 4.8 km/h
11.12.2018 08:58 1.4 C 96 % 1025.1 mbar 0.00 mm 0.0 km/h W-SW 254 0 min 0.0 UV-I 26 W/m 1.4 C 0.0 km/h
11.12.2018 08:56 1.4 C 96 % 1025.1 mbar 0.00 mm 0.0 km/h W-SW 254 0 min 0.0 UV-I 23 W/m 1.4 C 0.0 km/h
11.12.2018 08:54 1.3 C 96 % 1025.1 mbar 0.00 mm 0.0 km/h W-SW 254 0 min 0.0 UV-I 21 W/m 1.3 C 0.0 km/h
11.12.2018 08:52 1.3 C 96 % 1025.1 mbar 0.00 mm 0.5 km/h W-SW 254 0 min 0.0 UV-I 19 W/m 1.3 C 1.6 km/h
11.12.2018 08:50 1.3 C 96 % 1025.2 mbar 0.00 mm 2.3 km/h W-SW 254 0 min 0.0 UV-I 19 W/m 1.3 C 3.2 km/h
11.12.2018 08:48 1.3 C 96 % 1025.1 mbar 0.00 mm 0.6 km/h W-SW 253 0 min 0.0 UV-I 16 W/m 1.3 C 3.2 km/h
11.12.2018 08:46 1.3 C 96 % 1025.1 mbar 0.00 mm 0.2 km/h W-SW 253 0 min 0.0 UV-I 14 W/m 1.3 C 1.6 km/h
11.12.2018 08:44 1.3 C 96 % 1025.1 mbar 0.00 mm 2.3 km/h W-SW 253 0 min 0.0 UV-I 12 W/m 1.3 C 4.8 km/h
11.12.2018 08:42 1.3 C 96 % 1025.1 mbar 0.00 mm 0.7 km/h W-SW 254 0 min 0.0 UV-I 12 W/m 1.3 C 4.8 km/h
11.12.2018 08:40 1.3 C 96 % 1025.0 mbar 0.00 mm 0.0 km/h W-SW 258 0 min 0.0 UV-I 11 W/m 1.3 C 0.0 km/h
11.12.2018 08:38 1.3 C 96 % 1025.1 mbar 0.00 mm 0.0 km/h W-SW 258 0 min 0.0 UV-I 11 W/m 1.3 C 0.0 km/h
11.12.2018 08:36 1.3 C 96 % 1025.0 mbar 0.00 mm 0.0 km/h W-SW 258 0 min 0.0 UV-I 9 W/m 1.3 C 0.0 km/h
11.12.2018 08:34 1.3 C 96 % 1025.0 mbar 0.00 mm 0.0 km/h W-SW 258 0 min 0.0 UV-I 9 W/m 1.3 C 0.0 km/h
11.12.2018 08:32 1.3 C 96 % 1025.1 mbar 0.00 mm 0.0 km/h W-SW 258 0 min 0.0 UV-I 7 W/m 1.3 C 0.0 km/h
11.12.2018 08:30 1.3 C 96 % 1025.1 mbar 0.00 mm 0.2 km/h W-SW 258 0 min 0.0 UV-I 7 W/m 1.3 C 1.6 km/h
11.12.2018 08:28 1.4 C 96 % 1025.1 mbar 0.00 mm 1.5 km/h W-SW 258 0 min 0.0 UV-I 5 W/m 1.4 C 3.2 km/h
11.12.2018 08:26 1.3 C 96 % 1025.1 mbar 0.00 mm 1.5 km/h W-SW 258 0 min 0.0 UV-I 5 W/m 1.3 C 3.2 km/h
11.12.2018 08:24 1.4 C 96 % 1025.0 mbar 0.00 mm 0.0 km/h W-SW 258 0 min 0.0 UV-I 5 W/m 1.4 C 0.0 km/h
11.12.2018 08:22 1.4 C 96 % 1025.0 mbar 0.00 mm 1.5 km/h W-SW 258 0 min 0.0 UV-I 5 W/m 1.4 C 3.2 km/h
11.12.2018 08:20 1.4 C 96 % 1025.1 mbar 0.00 mm 1.7 km/h W-SW 258 0 min 0.0 UV-I 0 W/m 1.4 C 3.2 km/h
11.12.2018 08:18 1.4 C 96 % 1025.1 mbar 0.00 mm 2.6 km/h W-SW 258 0 min 0.0 UV-I 0 W/m 1.4 C 3.2 km/h
11.12.2018 08:16 1.3 C 96 % 1025.1 mbar 0.00 mm 2.8 km/h W-SW 258 0 min 0.0 UV-I 0 W/m 1.3 C 3.2 km/h
11.12.2018 08:14 1.4 C 96 % 1025.0 mbar 0.00 mm 1.8 km/h W-SW 258 0 min 0.0 UV-I 0 W/m 1.4 C 3.2 km/h
11.12.2018 08:12 1.4 C 96 % 1025.0 mbar 0.00 mm 2.5 km/h W-SW 258 0 min 0.0 UV-I 0 W/m 1.4 C 4.8 km/h
11.12.2018 08:10 1.4 C 96 % 1025.1 mbar 0.00 mm 2.0 km/h W-SW 258 0 min 0.0 UV-I 0 W/m 1.4 C 4.8 km/h
11.12.2018 08:08 1.4 C 96 % 1025.1 mbar 0.00 mm 0.1 km/h W-SW 258 0 min 0.0 UV-I 0 W/m 1.4 C 1.6 km/h
11.12.2018 08:06 1.4 C 96 % 1025.1 mbar 0.00 mm 2.6 km/h W-SW 258 0 min 0.0 UV-I 0 W/m 1.4 C 3.2 km/h
11.12.2018 08:04 1.4 C 96 % 1025.0 mbar 0.00 mm 1.1 km/h W-SW 258 0 min 0.0 UV-I 0 W/m 1.4 C 3.2 km/h
11.12.2018 08:02 1.4 C 96 % 1025.0 mbar 0.00 mm 0.1 km/h W-SW 258 0 min 0.0 UV-I 0 W/m 1.4 C 1.6 km/h
11.12.2018 08:00 1.4 C 96 % 1025.1 mbar 0.00 mm 0.0 km/h W-SW 258 0 min 0.0 UV-I 0 W/m 1.4 C 0.0 km/h
11.12.2018 07:58 1.3 C 96 % 1025.0 mbar 0.00 mm 1.3 km/h W-SW 258 0 min 0.0 UV-I 0 W/m 1.3 C 4.8 km/h
11.12.2018 07:56 1.3 C 96 % 1025.1 mbar 0.00 mm 0.5 km/h W-SW 258 0 min 0.0 UV-I 0 W/m 1.3 C 1.6 km/h
11.12.2018 07:54 1.3 C 96 % 1025.0 mbar 0.00 mm 3.8 km/h W-SW 258 0 min 0.0 UV-I 0 W/m 1.3 C 6.4 km/h
11.12.2018 07:52 1.3 C 96 % 1025.0 mbar 0.00 mm 4.2 km/h W-SW 247 0 min 0.0 UV-I 0 W/m 1.3 C 4.8 km/h
11.12.2018 07:50 1.3 C 96 % 1025.0 mbar 0.00 mm 1.1 km/h W-SW 237 0 min 0.0 UV-I 0 W/m 1.3 C 4.8 km/h
11.12.2018 07:48 1.3 C 96 % 1025.0 mbar 0.00 mm 0.0 km/h W-SW 237 0 min 0.0 UV-I 0 W/m 1.3 C 0.0 km/h
11.12.2018 07:46 1.3 C 96 % 1024.9 mbar 0.00 mm 0.0 km/h W-SW 237 0 min 0.0 UV-I 0 W/m 1.3 C 0.0 km/h
11.12.2018 07:44 1.3 C 96 % 1024.9 mbar 0.00 mm 0.4 km/h W-SW 237 0 min 0.0 UV-I 0 W/m 1.3 C 1.6 km/h
11.12.2018 07:42 1.3 C 96 % 1025.0 mbar 0.00 mm 1.4 km/h W-SW 237 0 min 0.0 UV-I 0 W/m 1.3 C 1.6 km/h
11.12.2018 07:40 1.3 C 96 % 1024.9 mbar 0.00 mm 0.8 km/h W-SW 237 0 min 0.0 UV-I 0 W/m 1.3 C 3.2 km/h
11.12.2018 07:38 1.3 C 96 % 1025.0 mbar 0.00 mm 0.0 km/h W-SW 237 0 min 0.0 UV-I 0 W/m 1.3 C 0.0 km/h
11.12.2018 07:36 1.3 C 96 % 1025.0 mbar 0.00 mm 0.0 km/h W-SW 237 0 min 0.0 UV-I 0 W/m 1.3 C 0.0 km/h
11.12.2018 07:34 1.4 C 96 % 1025.0 mbar 0.00 mm 0.0 km/h W-SW 237 0 min 0.0 UV-I 0 W/m 1.4 C 0.0 km/h
11.12.2018 07:32 1.4 C 96 % 1025.1 mbar 0.00 mm 0.0 km/h W-SW 237 0 min 0.0 UV-I 0 W/m 1.4 C 0.0 km/h
11.12.2018 07:30 1.4 C 96 % 1025.0 mbar 0.00 mm 0.0 km/h W-SW 237 0 min 0.0 UV-I 0 W/m 1.4 C 0.0 km/h
11.12.2018 07:28 1.4 C 96 % 1025.0 mbar 0.00 mm 0.9 km/h W-SW 237 0 min 0.0 UV-I 0 W/m 1.4 C 3.2 km/h
11.12.2018 07:26 1.4 C 96 % 1025.1 mbar 0.00 mm 2.0 km/h W-SW 237 0 min 0.0 UV-I 0 W/m 1.4 C 3.2 km/h
11.12.2018 07:24 1.4 C 96 % 1025.1 mbar 0.00 mm 0.4 km/h W-SW 237 0 min 0.0 UV-I 0 W/m 1.4 C 1.6 km/h
11.12.2018 07:22 1.4 C 96 % 1025.1 mbar 0.00 mm 0.6 km/h W-SW 237 0 min 0.0 UV-I 0 W/m 1.4 C 1.6 km/h
11.12.2018 07:20 1.4 C 96 % 1025.1 mbar 0.00 mm 0.9 km/h W-SW 237 0 min 0.0 UV-I 0 W/m 1.4 C 3.2 km/h
11.12.2018 07:18 1.4 C 96 % 1025.1 mbar 0.00 mm 1.3 km/h W-SW 237 0 min 0.0 UV-I 0 W/m 1.4 C 4.8 km/h
11.12.2018 07:16 1.4 C 96 % 1025.1 mbar 0.00 mm 3.5 km/h W-SW 237 0 min 0.0 UV-I 0 W/m 1.4 C 4.8 km/h
11.12.2018 07:14 1.5 C 96 % 1025.1 mbar 0.00 mm 3.4 km/h S-SW 195 0 min 0.0 UV-I 0 W/m 1.5 C 4.8 km/h
11.12.2018 07:12 1.4 C 96 % 1025.1 mbar 0.00 mm 4.6 km/h S-SW 195 0 min 0.0 UV-I 0 W/m 1.4 C 6.4 km/h
11.12.2018 07:10 1.4 C 96 % 1025.1 mbar 0.00 mm 4.1 km/h S-SW 195 0 min 0.0 UV-I 0 W/m 1.4 C 4.8 km/h
11.12.2018 07:08 1.4 C 96 % 1025.1 mbar 0.00 mm 4.0 km/h S-SW 199 0 min 0.0 UV-I 0 W/m 1.4 C 6.4 km/h
11.12.2018 07:06 1.4 C 96 % 1025.2 mbar 0.00 mm 4.2 km/h S-SW 201 0 min 0.0 UV-I 0 W/m 1.4 C 4.8 km/h
11.12.2018 07:04 1.4 C 96 % 1025.2 mbar 0.00 mm 4.0 km/h SW 222 0 min 0.0 UV-I 0 W/m 1.4 C 4.8 km/h
11.12.2018 07:02 1.5 C 96 % 1025.1 mbar 0.00 mm 2.0 km/h W 265 0 min 0.0 UV-I 0 W/m 1.5 C 3.2 km/h
11.12.2018 07:00 1.5 C 96 % 1025.1 mbar 0.00 mm 0.2 km/h W 265 0 min 0.0 UV-I 0 W/m 1.5 C 1.6 km/h
11.12.2018 06:58 1.5 C 96 % 1025.1 mbar 0.00 mm 1.7 km/h W 265 0 min 0.0 UV-I 0 W/m 1.5 C 3.2 km/h
11.12.2018 06:56 1.5 C 96 % 1025.2 mbar 0.00 mm 1.0 km/h W 265 0 min 0.0 UV-I 0 W/m 1.5 C 1.6 km/h
11.12.2018 06:54 1.6 C 96 % 1025.2 mbar 0.00 mm 0.4 km/h W 265 0 min 0.0 UV-I 0 W/m 1.6 C 1.6 km/h
11.12.2018 06:52 1.6 C 96 % 1025.1 mbar 0.00 mm 2.8 km/h W 265 0 min 0.0 UV-I 0 W/m 1.6 C 4.8 km/h
11.12.2018 06:50 1.6 C 96 % 1025.1 mbar 0.00 mm 2.4 km/h W 265 0 min 0.0 UV-I 0 W/m 1.6 C 4.8 km/h
11.12.2018 06:48 1.6 C 96 % 1025.1 mbar 0.00 mm 0.3 km/h W 265 0 min 0.0 UV-I 0 W/m 1.6 C 1.6 km/h
11.12.2018 06:46 1.6 C 96 % 1025.1 mbar 0.00 mm 1.5 km/h W 265 0 min 0.0 UV-I 0 W/m 1.6 C 3.2 km/h
11.12.2018 06:44 1.6 C 96 % 1025.1 mbar 0.00 mm 3.8 km/h W 265 0 min 0.0 UV-I 0 W/m 1.6 C 6.4 km/h
11.12.2018 06:42 1.6 C 96 % 1025.0 mbar 0.00 mm 5.9 km/h W 266 0 min 0.0 UV-I 0 W/m 1.6 C 8.0 km/h
11.12.2018 06:40 1.7 C 96 % 1025.1 mbar 0.00 mm 7.9 km/h W 265 0 min 0.0 UV-I 0 W/m 0.2 C 11.3 km/h
11.12.2018 06:38 1.7 C 96 % 1025.0 mbar 0.00 mm 1.2 km/h W 269 0 min 0.0 UV-I 0 W/m 1.7 C 6.4 km/h
11.12.2018 06:36 1.7 C 96 % 1024.9 mbar 0.00 mm 0.0 km/h W-SW 256 0 min 0.0 UV-I 0 W/m 1.7 C 0.0 km/h
11.12.2018 06:34 1.7 C 96 % 1025.0 mbar 0.00 mm 0.0 km/h W-SW 256 0 min 0.0 UV-I 0 W/m 1.7 C 0.0 km/h
11.12.2018 06:32 1.7 C 96 % 1025.0 mbar 0.00 mm 1.3 km/h W-SW 256 0 min 0.0 UV-I 0 W/m 1.7 C 3.2 km/h
11.12.2018 06:30 1.8 C 96 % 1025.1 mbar 0.00 mm 4.6 km/h W-SW 257 0 min 0.0 UV-I 0 W/m 1.8 C 6.4 km/h
11.12.2018 06:28 1.8 C 96 % 1025.1 mbar 0.00 mm 4.2 km/h W-SW 257 0 min 0.0 UV-I 0 W/m 1.8 C 4.8 km/h
11.12.2018 06:26 1.8 C 96 % 1025.0 mbar 0.00 mm 1.4 km/h W-SW 250 0 min 0.0 UV-I 0 W/m 1.8 C 4.8 km/h
11.12.2018 06:24 1.8 C 96 % 1025.1 mbar 0.00 mm 0.0 km/h SW 231 0 min 0.0 UV-I 0 W/m 1.8 C 0.0 km/h
11.12.2018 06:22 1.8 C 96 % 1025.2 mbar 0.00 mm 0.0 km/h SW 231 0 min 0.0 UV-I 0 W/m 1.8 C 0.0 km/h
11.12.2018 06:20 1.8 C 96 % 1025.1 mbar 0.00 mm 0.0 km/h SW 231 0 min 0.0 UV-I 0 W/m 1.8 C 0.0 km/h
11.12.2018 06:18 1.8 C 96 % 1025.2 mbar 0.00 mm 0.6 km/h SW 231 0 min 0.0 UV-I 0 W/m 1.8 C 1.6 km/h
11.12.2018 06:16 1.8 C 96 % 1025.2 mbar 0.00 mm 0.1 km/h SW 231 0 min 0.0 UV-I 0 W/m 1.8 C 1.6 km/h
11.12.2018 06:14 1.8 C 96 % 1025.1 mbar 0.00 mm 0.0 km/h SW 231 0 min 0.0 UV-I 0 W/m 1.8 C 0.0 km/h
11.12.2018 06:12 1.8 C 96 % 1025.0 mbar 0.00 mm 0.0 km/h SW 231 0 min 0.0 UV-I 0 W/m 1.8 C 0.0 km/h
11.12.2018 06:10 1.8 C 96 % 1025.1 mbar 0.00 mm 0.0 km/h SW 231 0 min 0.0 UV-I 0 W/m 1.8 C 0.0 km/h
11.12.2018 06:08 1.8 C 96 % 1025.1 mbar 0.00 mm 1.1 km/h SW 231 0 min 0.0 UV-I 0 W/m 1.8 C 3.2 km/h
11.12.2018 06:06 1.8 C 96 % 1025.1 mbar 0.00 mm 3.8 km/h SW 231 0 min 0.0 UV-I 0 W/m 1.8 C 4.8 km/h
11.12.2018 06:04 1.8 C 96 % 1025.1 mbar 0.00 mm 3.0 km/h W 260 0 min 0.0 UV-I 0 W/m 1.8 C 4.8 km/h
11.12.2018 06:02 1.8 C 96 % 1025.1 mbar 0.00 mm 0.3 km/h W 277 0 min 0.0 UV-I 0 W/m 1.8 C 1.6 km/h
11.12.2018 06:00 1.8 C 96 % 1025.1 mbar 0.00 mm 1.5 km/h W 277 0 min 0.0 UV-I 0 W/m 1.8 C 1.6 km/h
11.12.2018 05:58 1.8 C 96 % 1025.1 mbar 0.00 mm 2.0 km/h W 277 0 min 0.0 UV-I 0 W/m 1.8 C 3.2 km/h
11.12.2018 05:56 1.9 C 96 % 1025.1 mbar 0.00 mm 2.8 km/h W 277 0 min 0.0 UV-I 0 W/m 1.9 C 3.2 km/h
11.12.2018 05:54 1.8 C 96 % 1025.1 mbar 0.00 mm 2.8 km/h W 277 0 min 0.0 UV-I 0 W/m 1.8 C 4.8 km/h
11.12.2018 05:52 1.8 C 96 % 1025.0 mbar 0.00 mm 4.0 km/h W 277 0 min 0.0 UV-I 0 W/m 1.8 C 4.8 km/h
11.12.2018 05:50 1.8 C 96 % 1025.1 mbar 0.00 mm 4.7 km/h W 278 0 min 0.0 UV-I 0 W/m 1.8 C 6.4 km/h
11.12.2018 05:48 1.9 C 96 % 1025.1 mbar 0.00 mm 4.2 km/h W 281 0 min 0.0 UV-I 0 W/m 1.9 C 6.4 km/h
11.12.2018 05:46 1.8 C 96 % 1025.1 mbar 0.00 mm 3.1 km/h W-SW 249 0 min 0.0 UV-I 0 W/m 1.8 C 4.8 km/h
11.12.2018 05:44 1.8 C 96 % 1024.9 mbar 0.00 mm 3.0 km/h W-SW 243 0 min 0.0 UV-I 0 W/m 1.8 C 4.8 km/h
11.12.2018 05:42 1.8 C 96 % 1024.9 mbar 0.00 mm 2.5 km/h W-SW 243 0 min 0.0 UV-I 0 W/m 1.8 C 3.2 km/h
11.12.2018 05:40 1.8 C 96 % 1024.9 mbar 0.00 mm 2.3 km/h W-SW 243 0 min 0.0 UV-I 0 W/m 1.8 C 3.2 km/h
11.12.2018 05:38 1.8 C 96 % 1024.9 mbar 0.00 mm 3.4 km/h W-SW 243 0 min 0.0 UV-I 0 W/m 1.8 C 4.8 km/h
11.12.2018 05:36 1.8 C 96 % 1025.0 mbar 0.00 mm 5.0 km/h W-SW 243 0 min 0.0 UV-I 0 W/m 1.8 C 6.4 km/h
11.12.2018 05:34 1.8 C 96 % 1024.9 mbar 0.00 mm 4.9 km/h W-SW 254 0 min 0.0 UV-I 0 W/m 1.8 C 6.4 km/h
11.12.2018 05:32 1.8 C 96 % 1024.9 mbar 0.00 mm 5.7 km/h W 262 0 min 0.0 UV-I 0 W/m 1.8 C 8.0 km/h
11.12.2018 05:30 1.8 C 96 % 1024.9 mbar 0.00 mm 4.4 km/h W 260 0 min 0.0 UV-I 0 W/m 1.8 C 6.4 km/h
11.12.2018 05:28 1.8 C 96 % 1025.0 mbar 0.00 mm 1.1 km/h W-SW 254 0 min 0.0 UV-I 0 W/m 1.8 C 3.2 km/h
11.12.2018 05:26 1.8 C 96 % 1024.9 mbar 0.00 mm 2.3 km/h W-SW 254 0 min 0.0 UV-I 0 W/m 1.8 C 4.8 km/h
11.12.2018 05:24 1.8 C 96 % 1024.9 mbar 0.20 mm 5.0 km/h W-SW 254 0 min 0.0 UV-I 0 W/m 1.8 C 6.4 km/h
11.12.2018 05:22 1.8 C 96 % 1024.9 mbar 0.00 mm 6.8 km/h W-SW 254 0 min 0.0 UV-I 0 W/m 1.4 C 8.0 km/h
11.12.2018 05:20 1.8 C 96 % 1025.0 mbar 0.00 mm 6.4 km/h W 268 0 min 0.0 UV-I 0 W/m 1.8 C 11.3 km/h
11.12.2018 05:18 1.8 C 96 % 1024.8 mbar 0.00 mm 2.6 km/h NW 308 0 min 0.0 UV-I 0 W/m 1.8 C 4.8 km/h
11.12.2018 05:16 1.8 C 95 % 1024.8 mbar 0.00 mm 0.8 km/h N-NO 29 0 min 0.0 UV-I 0 W/m 1.8 C 1.6 km/h
11.12.2018 05:14 1.8 C 96 % 1024.8 mbar 0.00 mm 0.4 km/h N-NO 29 0 min 0.0 UV-I 0 W/m 1.8 C 1.6 km/h
11.12.2018 05:12 1.8 C 95 % 1024.8 mbar 0.00 mm 0.0 km/h N-NO 29 0 min 0.0 UV-I 0 W/m 1.8 C 0.0 km/h
11.12.2018 05:10 1.8 C 96 % 1024.8 mbar 0.00 mm 1.1 km/h N-NO 29 0 min 0.0 UV-I 0 W/m 1.8 C 3.2 km/h
11.12.2018 05:08 1.8 C 96 % 1024.8 mbar 0.00 mm 2.6 km/h N-NO 29 0 min 0.0 UV-I 0 W/m 1.8 C 4.8 km/h
11.12.2018 05:06 1.9 C 96 % 1024.8 mbar 0.00 mm 0.1 km/h W-NW 301 0 min 0.0 UV-I 0 W/m 1.9 C 1.6 km/h
11.12.2018 05:04 1.9 C 96 % 1024.8 mbar 0.00 mm 0.0 km/h W-SW 258 0 min 0.0 UV-I 0 W/m 1.9 C 0.0 km/h
11.12.2018 05:02 1.9 C 96 % 1024.8 mbar 0.00 mm 0.0 km/h W-SW 258 0 min 0.0 UV-I 0 W/m 1.9 C 0.0 km/h
11.12.2018 05:00 1.9 C 96 % 1024.8 mbar 0.00 mm 1.7 km/h W-SW 258 0 min 0.0 UV-I 0 W/m 1.9 C 3.2 km/h
11.12.2018 04:58 1.9 C 96 % 1024.8 mbar 0.00 mm 1.4 km/h W-SW 258 0 min 0.0 UV-I 0 W/m 1.9 C 3.2 km/h
11.12.2018 04:56 2.0 C 96 % 1024.8 mbar 0.00 mm 0.0 km/h W-SW 258 0 min 0.0 UV-I 0 W/m 2.0 C 0.0 km/h
11.12.2018 04:54 2.0 C 96 % 1024.8 mbar 0.00 mm 0.1 km/h W-SW 258 0 min 0.0 UV-I 0 W/m 2.0 C 1.6 km/h
11.12.2018 04:52 2.0 C 96 % 1024.8 mbar 0.00 mm 1.8 km/h W-SW 258 0 min 0.0 UV-I 0 W/m 2.0 C 3.2 km/h
11.12.2018 04:50 2.1 C 96 % 1024.8 mbar 0.00 mm 2.7 km/h W-SW 258 0 min 0.0 UV-I 0 W/m 2.1 C 3.2 km/h
11.12.2018 04:48 2.1 C 96 % 1024.7 mbar 0.00 mm 2.7 km/h W-SW 258 0 min 0.0 UV-I 0 W/m 2.1 C 4.8 km/h
11.12.2018 04:46 2.1 C 96 % 1024.8 mbar 0.00 mm 2.4 km/h W-SW 258 0 min 0.0 UV-I 0 W/m 2.1 C 3.2 km/h
11.12.2018 04:44 2.1 C 96 % 1024.8 mbar 0.00 mm 2.0 km/h W-SW 258 0 min 0.0 UV-I 0 W/m 2.1 C 3.2 km/h
11.12.2018 04:42 2.1 C 96 % 1024.9 mbar 0.00 mm 0.7 km/h W-SW 258 0 min 0.0 UV-I 0 W/m 2.1 C 3.2 km/h
11.12.2018 04:40 2.1 C 96 % 1024.9 mbar 0.00 mm 1.7 km/h W-SW 258 0 min 0.0 UV-I 0 W/m 2.1 C 3.2 km/h
11.12.2018 04:38 2.1 C 96 % 1024.9 mbar 0.00 mm 3.4 km/h W-SW 258 0 min 0.0 UV-I 0 W/m 2.1 C 4.8 km/h
11.12.2018 04:36 2.1 C 96 % 1024.9 mbar 0.00 mm 2.4 km/h W-SW 258 0 min 0.0 UV-I 0 W/m 2.1 C 4.8 km/h
11.12.2018 04:34 2.1 C 96 % 1024.9 mbar 0.00 mm 2.6 km/h W-SW 258 0 min 0.0 UV-I 0 W/m 2.1 C 3.2 km/h
11.12.2018 04:32 2.1 C 96 % 1024.9 mbar 0.00 mm 2.6 km/h W-SW 258 0 min 0.0 UV-I 0 W/m 2.1 C 4.8 km/h
11.12.2018 04:30 2.1 C 96 % 1024.9 mbar 0.00 mm 1.8 km/h W-SW 258 0 min 0.0 UV-I 0 W/m 2.1 C 4.8 km/h
11.12.2018 04:28 2.1 C 96 % 1025.0 mbar 0.00 mm 3.2 km/h W-SW 258 0 min 0.0 UV-I 0 W/m 2.1 C 4.8 km/h
11.12.2018 04:26 2.1 C 96 % 1025.0 mbar 0.00 mm 3.4 km/h W-SW 250 0 min 0.0 UV-I 0 W/m 2.1 C 4.8 km/h
11.12.2018 04:24 2.1 C 96 % 1025.0 mbar 0.00 mm 5.0 km/h W 260 0 min 0.0 UV-I 0 W/m 2.1 C 6.4 km/h
11.12.2018 04:22 2.1 C 96 % 1025.1 mbar 0.00 mm 4.3 km/h W 262 0 min 0.0 UV-I 0 W/m 2.1 C 6.4 km/h
11.12.2018 04:20 2.1 C 96 % 1025.0 mbar 0.00 mm 3.6 km/h W-SW 249 0 min 0.0 UV-I 0 W/m 2.1 C 4.8 km/h
11.12.2018 04:18 2.1 C 96 % 1025.0 mbar 0.00 mm 4.6 km/h W-SW 249 0 min 0.0 UV-I 0 W/m 2.1 C 4.8 km/h
11.12.2018 04:16 2.1 C 96 % 1025.1 mbar 0.00 mm 2.9 km/h W-SW 249 0 min 0.0 UV-I 0 W/m 2.1 C 4.8 km/h
11.12.2018 04:14 2.1 C 96 % 1025.1 mbar 0.00 mm 2.8 km/h W-SW 249 0 min 0.0 UV-I 0 W/m 2.1 C 3.2 km/h
11.12.2018 04:12 2.1 C 96 % 1025.1 mbar 0.00 mm 2.7 km/h W-SW 249 0 min 0.0 UV-I 0 W/m 2.1 C 4.8 km/h
11.12.2018 04:10 2.1 C 96 % 1025.1 mbar 0.00 mm 0.4 km/h SW 226 0 min 0.0 UV-I 0 W/m 2.1 C 1.6 km/h
11.12.2018 04:08 2.1 C 96 % 1025.0 mbar 0.00 mm 0.0 km/h SW 226 0 min 0.0 UV-I 0 W/m 2.1 C 0.0 km/h
11.12.2018 04:06 2.1 C 96 % 1025.0 mbar 0.20 mm 0.0 km/h SW 226 0 min 0.0 UV-I 0 W/m 2.1 C 0.0 km/h
11.12.2018 04:04 2.1 C 95 % 1025.1 mbar 0.00 mm 1.1 km/h SW 226 0 min 0.0 UV-I 0 W/m 2.1 C 1.6 km/h
11.12.2018 04:02 2.1 C 96 % 1025.0 mbar 0.00 mm 0.0 km/h SW 226 0 min 0.0 UV-I 0 W/m 2.1 C 0.0 km/h
11.12.2018 04:00 2.1 C 95 % 1025.0 mbar 0.00 mm 0.0 km/h SW 226 0 min 0.0 UV-I 0 W/m 2.1 C 0.0 km/h
11.12.2018 03:58 2.2 C 96 % 1025.1 mbar 0.00 mm 0.0 km/h SW 226 0 min 0.0 UV-I 0 W/m 2.2 C 0.0 km/h
11.12.2018 03:56 2.2 C 96 % 1025.1 mbar 0.00 mm 0.5 km/h SW 226 0 min 0.0 UV-I 0 W/m 2.2 C 3.2 km/h
11.12.2018 03:54 2.2 C 96 % 1025.0 mbar 0.00 mm 3.5 km/h SW 226 0 min 0.0 UV-I 0 W/m 2.2 C 4.8 km/h
11.12.2018 03:52 2.2 C 96 % 1025.1 mbar 0.20 mm 3.8 km/h SW 226 0 min 0.0 UV-I 0 W/m 2.2 C 6.4 km/h
11.12.2018 03:50 2.2 C 96 % 1025.0 mbar 0.00 mm 1.0 km/h W-SW 255 0 min 0.0 UV-I 0 W/m 2.2 C 3.2 km/h
11.12.2018 03:48 2.1 C 96 % 1024.9 mbar 0.00 mm 1.6 km/h W 276 0 min 0.0 UV-I 0 W/m 2.1 C 3.2 km/h
11.12.2018 03:46 2.1 C 96 % 1024.8 mbar 0.00 mm 2.9 km/h W 274 0 min 0.0 UV-I 0 W/m 2.1 C 4.8 km/h
11.12.2018 03:44 2.1 C 96 % 1024.8 mbar 0.00 mm 3.9 km/h W-NW 300 0 min 0.0 UV-I 0 W/m 2.1 C 6.4 km/h
11.12.2018 03:42 2.0 C 96 % 1024.8 mbar 0.00 mm 3.2 km/h W-NW 293 0 min 0.0 UV-I 0 W/m 2.0 C 6.4 km/h
11.12.2018 03:40 1.9 C 96 % 1024.9 mbar 0.00 mm 2.8 km/h SW 226 0 min 0.0 UV-I 0 W/m 1.9 C 4.8 km/h
11.12.2018 03:38 1.8 C 96 % 1024.8 mbar 0.00 mm 7.5 km/h S 185 0 min 0.0 UV-I 0 W/m 0.7 C 12.9 km/h
11.12.2018 03:36 1.8 C 95 % 1024.9 mbar 0.00 mm 11.5 km/h S-SW 197 0 min 0.0 UV-I 0 W/m -2.6 C 14.5 km/h
11.12.2018 03:34 1.7 C 95 % 1024.8 mbar 0.00 mm 12.7 km/h S-SW 212 0 min 0.0 UV-I 0 W/m -3.5 C 17.7 km/h
11.12.2018 03:32 1.7 C 95 % 1024.8 mbar 0.00 mm 12.7 km/h SW 230 0 min 0.0 UV-I 0 W/m -3.5 C 16.1 km/h
11.12.2018 03:30 1.7 C 96 % 1024.8 mbar 0.00 mm 8.0 km/h SW 220 0 min 0.0 UV-I 0 W/m 0.1 C 14.5 km/h
11.12.2018 03:28 1.7 C 96 % 1024.7 mbar 0.00 mm 3.8 km/h W-NW 288 0 min 0.0 UV-I 0 W/m 1.7 C 4.8 km/h
11.12.2018 03:26 1.6 C 96 % 1024.6 mbar 0.00 mm 5.0 km/h N-NW 341 0 min 0.0 UV-I 0 W/m 1.6 C 6.4 km/h
11.12.2018 03:24 1.6 C 95 % 1024.5 mbar 0.00 mm 6.2 km/h N 1 0 min 0.0 UV-I 0 W/m 1.6 C 9.7 km/h
11.12.2018 03:22 1.6 C 95 % 1024.4 mbar 0.00 mm 5.7 km/h N 349 0 min 0.0 UV-I 0 W/m 1.6 C 8.0 km/h
11.12.2018 03:20 1.6 C 95 % 1024.4 mbar 0.00 mm 6.5 km/h N-NW 339 0 min 0.0 UV-I 0 W/m 1.5 C 9.7 km/h
11.12.2018 03:18 1.6 C 95 % 1024.3 mbar 0.00 mm 5.3 km/h N 358 0 min 0.0 UV-I 0 W/m 1.6 C 8.0 km/h
11.12.2018 03:16 1.6 C 95 % 1024.3 mbar 0.00 mm 5.4 km/h N-NO 12 0 min 0.0 UV-I 0 W/m 1.6 C 8.0 km/h
11.12.2018 03:14 1.6 C 95 % 1024.3 mbar 0.00 mm 4.6 km/h NO 34 0 min 0.0 UV-I 0 W/m 1.6 C 8.0 km/h
11.12.2018 03:12 1.6 C 95 % 1024.3 mbar 0.00 mm 5.1 km/h N 8 0 min 0.0 UV-I 0 W/m 1.6 C 9.7 km/h
11.12.2018 03:10 1.6 C 95 % 1024.2 mbar 0.00 mm 3.7 km/h N-NW 343 0 min 0.0 UV-I 0 W/m 1.6 C 6.4 km/h
11.12.2018 03:08 1.5 C 95 % 1024.3 mbar 0.00 mm 4.0 km/h N-NW 339 0 min 0.0 UV-I 0 W/m 1.5 C 6.4 km/h
11.12.2018 03:06 1.4 C 95 % 1024.4 mbar 0.00 mm 3.4 km/h N-NO 14 0 min 0.0 UV-I 0 W/m 1.4 C 4.8 km/h
11.12.2018 03:04 1.4 C 95 % 1024.4 mbar 0.00 mm 3.3 km/h N-NO 16 0 min 0.0 UV-I 0 W/m 1.4 C 4.8 km/h
11.12.2018 03:02 1.4 C 95 % 1024.4 mbar 0.00 mm 3.7 km/h N-NO 16 0 min 0.0 UV-I 0 W/m 1.4 C 6.4 km/h
11.12.2018 03:00 1.5 C 95 % 1024.3 mbar 0.00 mm 2.7 km/h N-NW 335 0 min 0.0 UV-I 0 W/m 1.5 C 4.8 km/h
11.12.2018 02:58 1.5 C 95 % 1024.4 mbar 0.00 mm 1.2 km/h W-SW 257 0 min 0.0 UV-I 0 W/m 1.5 C 4.8 km/h
11.12.2018 02:56 1.5 C 95 % 1024.3 mbar 0.00 mm 3.9 km/h W-SW 253 0 min 0.0 UV-I 0 W/m 1.5 C 6.4 km/h
11.12.2018 02:54 1.5 C 95 % 1024.3 mbar 0.00 mm 4.1 km/h S-SW 206 0 min 0.0 UV-I 0 W/m 1.5 C 4.8 km/h
11.12.2018 02:52 1.6 C 95 % 1024.3 mbar 0.00 mm 4.5 km/h S-SW 210 0 min 0.0 UV-I 0 W/m 1.6 C 6.4 km/h
11.12.2018 02:50 1.6 C 95 % 1024.3 mbar 0.00 mm 5.0 km/h SW 230 0 min 0.0 UV-I 0 W/m 1.6 C 6.4 km/h
11.12.2018 02:48 1.6 C 95 % 1024.4 mbar 0.00 mm 3.6 km/h W-SW 247 0 min 0.0 UV-I 0 W/m 1.6 C 6.4 km/h
11.12.2018 02:46 1.6 C 95 % 1024.4 mbar 0.00 mm 0.6 km/h W 261 0 min 0.0 UV-I 0 W/m 1.6 C 1.6 km/h
11.12.2018 02:44 1.6 C 95 % 1024.4 mbar 0.00 mm 2.5 km/h W 261 0 min 0.0 UV-I 0 W/m 1.6 C 6.4 km/h
11.12.2018 02:42 1.6 C 95 % 1024.5 mbar 0.00 mm 4.2 km/h W 261 0 min 0.0 UV-I 0 W/m 1.6 C 6.4 km/h
11.12.2018 02:40 1.6 C 95 % 1024.4 mbar 0.00 mm 0.0 km/h S-SW 209 0 min 0.0 UV-I 0 W/m 1.6 C 0.0 km/h
11.12.2018 02:38 1.6 C 95 % 1024.5 mbar 0.00 mm 2.8 km/h S-SW 209 0 min 0.0 UV-I 0 W/m 1.6 C 4.8 km/h
11.12.2018 02:36 1.6 C 95 % 1024.4 mbar 0.00 mm 3.8 km/h S-SW 208 0 min 0.0 UV-I 0 W/m 1.6 C 4.8 km/h
11.12.2018 02:34 1.6 C 95 % 1024.4 mbar 0.00 mm 1.5 km/h S-SW 210 0 min 0.0 UV-I 0 W/m 1.6 C 3.2 km/h
11.12.2018 02:32 1.6 C 95 % 1024.4 mbar 0.00 mm 1.9 km/h W-SW 247 0 min 0.0 UV-I 0 W/m 1.6 C 3.2 km/h
11.12.2018 02:30 1.7 C 95 % 1024.4 mbar 0.00 mm 2.2 km/h W-SW 247 0 min 0.0 UV-I 0 W/m 1.7 C 4.8 km/h
11.12.2018 02:28 1.7 C 95 % 1024.4 mbar 0.00 mm 0.8 km/h W-SW 247 0 min 0.0 UV-I 0 W/m 1.7 C 3.2 km/h
11.12.2018 02:26 1.7 C 94 % 1024.3 mbar 0.00 mm 0.0 km/h W 272 0 min 0.0 UV-I 0 W/m 1.7 C 0.0 km/h
11.12.2018 02:24 1.7 C 94 % 1024.3 mbar 0.00 mm 1.7 km/h W 272 0 min 0.0 UV-I 0 W/m 1.7 C 3.2 km/h
11.12.2018 02:22 1.7 C 94 % 1024.4 mbar 0.00 mm 1.0 km/h W 272 0 min 0.0 UV-I 0 W/m 1.7 C 3.2 km/h
11.12.2018 02:20 1.7 C 94 % 1024.4 mbar 0.00 mm 1.0 km/h W 270 0 min 0.0 UV-I 0 W/m 1.7 C 3.2 km/h
11.12.2018 02:18 1.8 C 94 % 1024.3 mbar 0.00 mm 3.6 km/h W 270 0 min 0.0 UV-I 0 W/m 1.8 C 4.8 km/h
11.12.2018 02:16 1.8 C 95 % 1024.3 mbar 0.00 mm 3.0 km/h W 270 0 min 0.0 UV-I 0 W/m 1.8 C 4.8 km/h
11.12.2018 02:14 1.8 C 95 % 1024.3 mbar 0.00 mm 1.3 km/h W 270 0 min 0.0 UV-I 0 W/m 1.8 C 3.2 km/h
11.12.2018 02:12 1.8 C 95 % 1024.3 mbar 0.00 mm 2.8 km/h W 278 0 min 0.0 UV-I 0 W/m 1.8 C 4.8 km/h
11.12.2018 02:10 1.8 C 94 % 1024.3 mbar 0.00 mm 3.9 km/h W-NW 292 0 min 0.0 UV-I 0 W/m 1.8 C 4.8 km/h
11.12.2018 02:08 1.8 C 94 % 1024.3 mbar 0.00 mm 4.9 km/h W-NW 297 0 min 0.0 UV-I 0 W/m 1.8 C 6.4 km/h
11.12.2018 02:06 1.9 C 94 % 1024.3 mbar 0.00 mm 4.0 km/h W 272 0 min 0.0 UV-I 0 W/m 1.9 C 4.8 km/h
11.12.2018 02:04 1.9 C 94 % 1024.3 mbar 0.00 mm 2.1 km/h SW 222 0 min 0.0 UV-I 0 W/m 1.9 C 3.2 km/h
11.12.2018 02:02 1.9 C 94 % 1024.3 mbar 0.00 mm 3.4 km/h SW 220 0 min 0.0 UV-I 0 W/m 1.9 C 4.8 km/h
11.12.2018 02:00 1.9 C 94 % 1024.3 mbar 0.00 mm 3.6 km/h SW 220 0 min 0.0 UV-I 0 W/m 1.9 C 4.8 km/h
11.12.2018 01:58 1.9 C 94 % 1024.3 mbar 0.00 mm 6.3 km/h SW 220 0 min 0.0 UV-I 0 W/m 1.9 C 8.0 km/h
11.12.2018 01:56 1.9 C 94 % 1024.3 mbar 0.00 mm 3.7 km/h SW 226 0 min 0.0 UV-I 0 W/m 1.9 C 6.4 km/h
11.12.2018 01:54 1.9 C 94 % 1024.3 mbar 0.00 mm 2.5 km/h S-SW 196 0 min 0.0 UV-I 0 W/m 1.9 C 3.2 km/h
11.12.2018 01:52 1.9 C 94 % 1024.4 mbar 0.00 mm 2.6 km/h S-SW 196 0 min 0.0 UV-I 0 W/m 1.9 C 4.8 km/h
11.12.2018 01:50 2.0 C 94 % 1024.4 mbar 0.00 mm 2.9 km/h S-SW 196 0 min 0.0 UV-I 0 W/m 2.0 C 4.8 km/h
11.12.2018 01:48 2.0 C 94 % 1024.4 mbar 0.00 mm 1.6 km/h S-SO 151 0 min 0.0 UV-I 0 W/m 2.0 C 3.2 km/h
11.12.2018 01:46 2.0 C 94 % 1024.4 mbar 0.00 mm 2.8 km/h S-SO 151 0 min 0.0 UV-I 0 W/m 2.0 C 4.8 km/h
11.12.2018 01:44 2.1 C 94 % 1024.4 mbar 0.00 mm 2.8 km/h S-SO 151 0 min 0.0 UV-I 0 W/m 2.1 C 4.8 km/h
11.12.2018 01:42 2.0 C 94 % 1024.4 mbar 0.00 mm 2.3 km/h S-SO 151 0 min 0.0 UV-I 0 W/m 2.0 C 3.2 km/h
11.12.2018 01:40 2.1 C 94 % 1024.5 mbar 0.00 mm 1.4 km/h S-SO 151 0 min 0.0 UV-I 0 W/m 2.1 C 3.2 km/h
11.12.2018 01:38 2.1 C 94 % 1024.4 mbar 0.00 mm 2.4 km/h S-SO 151 0 min 0.0 UV-I 0 W/m 2.1 C 3.2 km/h
11.12.2018 01:36 2.1 C 94 % 1024.4 mbar 0.00 mm 3.7 km/h S-SO 151 0 min 0.0 UV-I 0 W/m 2.1 C 6.4 km/h
11.12.2018 01:34 2.2 C 93 % 1024.4 mbar 0.00 mm 3.4 km/h S-SO 162 0 min 0.0 UV-I 0 W/m 2.2 C 4.8 km/h
11.12.2018 01:32 2.2 C 94 % 1024.3 mbar 0.00 mm 0.8 km/h W-SW 242 0 min 0.0 UV-I 0 W/m 2.2 C 3.2 km/h
11.12.2018 01:30 2.2 C 94 % 1024.4 mbar 0.00 mm 0.1 km/h W-SW 242 0 min 0.0 UV-I 0 W/m 2.2 C 1.6 km/h
11.12.2018 01:28 2.3 C 93 % 1024.4 mbar 0.00 mm 1.7 km/h W-SW 242 0 min 0.0 UV-I 0 W/m 2.3 C 3.2 km/h
11.12.2018 01:26 2.3 C 93 % 1024.4 mbar 0.00 mm 2.1 km/h W-SW 242 0 min 0.0 UV-I 0 W/m 2.3 C 3.2 km/h
11.12.2018 01:24 2.4 C 93 % 1024.4 mbar 0.00 mm 0.7 km/h W-SW 242 0 min 0.0 UV-I 0 W/m 2.4 C 1.6 km/h
11.12.2018 01:22 2.4 C 93 % 1024.4 mbar 0.00 mm 2.9 km/h W-SW 242 0 min 0.0 UV-I 0 W/m 2.4 C 6.4 km/h
11.12.2018 01:20 2.5 C 93 % 1024.4 mbar 0.00 mm 7.0 km/h W-SW 245 0 min 0.0 UV-I 0 W/m 1.9 C 9.7 km/h
11.12.2018 01:18 2.6 C 93 % 1024.3 mbar 0.00 mm 5.5 km/h W-SW 247 0 min 0.0 UV-I 0 W/m 2.6 C 8.0 km/h
11.12.2018 01:16 2.6 C 94 % 1024.5 mbar 0.00 mm 4.5 km/h SW 229 0 min 0.0 UV-I 0 W/m 2.6 C 6.4 km/h
11.12.2018 01:14 2.6 C 94 % 1024.4 mbar 0.00 mm 3.9 km/h SW 229 0 min 0.0 UV-I 0 W/m 2.6 C 4.8 km/h
11.12.2018 01:12 2.6 C 94 % 1024.6 mbar 0.00 mm 5.2 km/h W-SW 237 0 min 0.0 UV-I 0 W/m 2.6 C 8.0 km/h
11.12.2018 01:10 2.7 C 94 % 1024.7 mbar 0.00 mm 6.4 km/h W-SW 254 0 min 0.0 UV-I 0 W/m 2.7 C 8.0 km/h
11.12.2018 01:08 2.7 C 94 % 1024.6 mbar 0.20 mm 6.2 km/h W-SW 248 0 min 0.0 UV-I 0 W/m 2.7 C 8.0 km/h
11.12.2018 01:06 2.8 C 93 % 1024.5 mbar 0.00 mm 7.0 km/h SW 220 0 min 0.0 UV-I 0 W/m 2.2 C 9.7 km/h
11.12.2018 01:04 2.8 C 94 % 1024.6 mbar 0.00 mm 6.7 km/h SW 222 0 min 0.0 UV-I 0 W/m 2.5 C 8.0 km/h
11.12.2018 01:02 2.8 C 94 % 1024.7 mbar 0.00 mm 6.2 km/h SW 235 0 min 0.0 UV-I 0 W/m 2.8 C 8.0 km/h
11.12.2018 01:00 2.8 C 94 % 1024.7 mbar 0.20 mm 5.7 km/h W-SW 243 0 min 0.0 UV-I 0 W/m 2.8 C 8.0 km/h
11.12.2018 00:58 2.8 C 94 % 1024.8 mbar 0.00 mm 3.9 km/h W-SW 243 0 min 0.0 UV-I 0 W/m 2.8 C 4.8 km/h
11.12.2018 00:56 2.9 C 94 % 1024.8 mbar 0.00 mm 4.5 km/h W 279 0 min 0.0 UV-I 0 W/m 2.9 C 6.4 km/h
11.12.2018 00:54 2.9 C 94 % 1024.8 mbar 0.00 mm 0.2 km/h W-NW 295 0 min 0.0 UV-I 0 W/m 2.9 C 3.2 km/h
11.12.2018 00:52 3.0 C 94 % 1024.7 mbar 0.00 mm 2.9 km/h N-NW 347 0 min 0.0 UV-I 0 W/m 3.0 C 6.4 km/h
11.12.2018 00:50 3.0 C 94 % 1024.7 mbar 0.20 mm 1.8 km/h N-NW 334 0 min 0.0 UV-I 0 W/m 3.0 C 4.8 km/h
11.12.2018 00:48 3.0 C 94 % 1024.7 mbar 0.00 mm 0.9 km/h N-NW 334 0 min 0.0 UV-I 0 W/m 3.0 C 3.2 km/h
11.12.2018 00:46 3.1 C 94 % 1024.7 mbar 0.00 mm 0.0 km/h N-NW 334 0 min 0.0 UV-I 0 W/m 3.1 C 0.0 km/h
11.12.2018 00:44 3.1 C 94 % 1024.7 mbar 0.20 mm 0.7 km/h N-NW 335 0 min 0.0 UV-I 0 W/m 3.1 C 3.2 km/h
11.12.2018 00:42 3.1 C 94 % 1024.6 mbar 0.00 mm 2.4 km/h N-NW 334 0 min 0.0 UV-I 0 W/m 3.1 C 3.2 km/h
11.12.2018 00:40 3.1 C 94 % 1024.6 mbar 0.00 mm 2.7 km/h N-NW 334 0 min 0.0 UV-I 0 W/m 3.1 C 4.8 km/h
11.12.2018 00:38 3.1 C 94 % 1024.7 mbar 0.00 mm 2.6 km/h W-NW 285 0 min 0.0 UV-I 0 W/m 3.1 C 4.8 km/h
11.12.2018 00:36 3.1 C 94 % 1024.7 mbar 0.00 mm 1.8 km/h W-NW 285 0 min 0.0 UV-I 0 W/m 3.1 C 3.2 km/h
11.12.2018 00:34 3.1 C 94 % 1024.7 mbar 0.20 mm 1.4 km/h W-NW 285 0 min 0.0 UV-I 0 W/m 3.1 C 1.6 km/h
11.12.2018 00:32 3.1 C 94 % 1024.7 mbar 0.00 mm 0.4 km/h W-NW 285 0 min 0.0 UV-I 0 W/m 3.1 C 1.6 km/h
11.12.2018 00:30 3.1 C 94 % 1024.7 mbar 0.00 mm 0.0 km/h W-NW 285 0 min 0.0 UV-I 0 W/m 3.1 C 0.0 km/h
11.12.2018 00:28 3.1 C 94 % 1024.8 mbar 0.00 mm 0.0 km/h W-NW 285 0 min 0.0 UV-I 0 W/m 3.1 C 1.6 km/h
11.12.2018 00:26 3.1 C 94 % 1024.7 mbar 0.00 mm 1.5 km/h W-NW 285 0 min 0.0 UV-I 0 W/m 3.1 C 3.2 km/h
11.12.2018 00:24 3.1 C 94 % 1024.6 mbar 0.00 mm 1.9 km/h W-NW 285 0 min 0.0 UV-I 0 W/m 3.1 C 4.8 km/h
11.12.2018 00:22 3.1 C 94 % 1024.6 mbar 0.00 mm 2.7 km/h W 278 0 min 0.0 UV-I 0 W/m 3.1 C 4.8 km/h
11.12.2018 00:20 3.2 C 94 % 1024.6 mbar 0.00 mm 4.9 km/h W-NW 283 0 min 0.0 UV-I 0 W/m 3.2 C 6.4 km/h
11.12.2018 00:18 3.2 C 94 % 1024.6 mbar 0.00 mm 5.0 km/h W 272 0 min 0.0 UV-I 0 W/m 3.2 C 6.4 km/h
11.12.2018 00:16 3.2 C 94 % 1024.6 mbar 0.00 mm 3.2 km/h W 268 0 min 0.0 UV-I 0 W/m 3.2 C 4.8 km/h
11.12.2018 00:14 3.2 C 94 % 1024.6 mbar 0.20 mm 3.5 km/h W-SW 249 0 min 0.0 UV-I 0 W/m 3.2 C 4.8 km/h
11.12.2018 00:12 3.2 C 94 % 1024.6 mbar 0.00 mm 1.8 km/h S-SW 208 0 min 0.0 UV-I 0 W/m 3.2 C 3.2 km/h
11.12.2018 00:10 3.2 C 94 % 1024.6 mbar 0.00 mm 2.9 km/h S-SW 208 0 min 0.0 UV-I 0 W/m 3.2 C 4.8 km/h
11.12.2018 00:08 3.2 C 94 % 1024.6 mbar 0.00 mm 3.4 km/h S-SW 208 0 min 0.0 UV-I 0 W/m 3.2 C 4.8 km/h
11.12.2018 00:06 3.2 C 94 % 1024.7 mbar 0.00 mm 2.8 km/h W-SW 247 0 min 0.0 UV-I 0 W/m 3.2 C 4.8 km/h
11.12.2018 00:04 3.2 C 94 % 1024.8 mbar 0.00 mm 2.6 km/h NW 322 0 min 0.0 UV-I 0 W/m 3.2 C 3.2 km/h
11.12.2018 00:02 3.2 C 94 % 1024.9 mbar 0.00 mm 1.7 km/h N 351 0 min 0.0 UV-I 0 W/m 3.2 C 3.2 km/h
11.12.2018 00:00 3.2 C 94 % 1024.9 mbar 0.00 mm 1.4 km/h N 7 0 min 0.0 UV-I 0 W/m 3.2 C 4.8 km/h
10.12.2018 23:58 3.2 C 94 % 1024.9 mbar 0.00 mm 1.8 km/h N 349 0 min 0.0 UV-I 0 W/m 3.2 C 6.4 km/h
10.12.2018 23:56 3.2 C 95 % 1025.0 mbar 0.00 mm 1.2 km/h N 351 0 min 0.0 UV-I 0 W/m 3.2 C 6.4 km/h
10.12.2018 23:54 3.2 C 94 % 1025.0 mbar 0.00 mm 2.0 km/h W 278 0 min 0.0 UV-I 0 W/m 3.2 C 4.8 km/h
10.12.2018 23:52 3.2 C 94 % 1025.0 mbar 0.00 mm 2.2 km/h SW 226 0 min 0.0 UV-I 0 W/m 3.2 C 4.8 km/h
10.12.2018 23:50 3.2 C 94 % 1025.0 mbar 0.00 mm 2.8 km/h SW 226 0 min 0.0 UV-I 0 W/m 3.2 C 3.2 km/h
10.12.2018 23:48 3.2 C 94 % 1025.0 mbar 0.20 mm 3.2 km/h SW 225 0 min 0.0 UV-I 0 W/m 3.2 C 6.4 km/h
10.12.2018 23:46 3.2 C 94 % 1025.1 mbar 0.00 mm 4.8 km/h SW 226 0 min 0.0 UV-I 0 W/m 3.2 C 6.4 km/h
10.12.2018 23:44 3.2 C 94 % 1025.1 mbar 0.00 mm 3.6 km/h SW 225 0 min 0.0 UV-I 0 W/m 3.2 C 6.4 km/h
10.12.2018 23:42 3.2 C 94 % 1025.0 mbar 0.00 mm 3.6 km/h SW 225 0 min 0.0 UV-I 0 W/m 3.2 C 6.4 km/h
10.12.2018 23:40 3.2 C 94 % 1025.0 mbar 0.00 mm 2.3 km/h N-NW 340 0 min 0.0 UV-I 0 W/m 3.2 C 3.2 km/h
10.12.2018 23:38 3.2 C 94 % 1025.1 mbar 0.00 mm 2.7 km/h N-NW 340 0 min 0.0 UV-I 0 W/m 3.2 C 6.4 km/h
10.12.2018 23:36 3.2 C 94 % 1025.1 mbar 0.00 mm 2.8 km/h N-NW 340 0 min 0.0 UV-I 0 W/m 3.2 C 6.4 km/h
10.12.2018 23:34 3.2 C 94 % 1025.1 mbar 0.00 mm 0.6 km/h N-NW 340 0 min 0.0 UV-I 0 W/m 3.2 C 1.6 km/h
10.12.2018 23:32 3.2 C 94 % 1025.1 mbar 0.00 mm 0.0 km/h N-NW 340 0 min 0.0 UV-I 0 W/m 3.2 C 0.0 km/h
10.12.2018 23:30 3.1 C 94 % 1025.1 mbar 0.00 mm 1.6 km/h N-NW 340 0 min 0.0 UV-I 0 W/m 3.1 C 6.4 km/h
10.12.2018 23:28 3.1 C 94 % 1025.1 mbar 0.00 mm 2.9 km/h N-NW 340 0 min 0.0 UV-I 0 W/m 3.1 C 6.4 km/h
10.12.2018 23:26 3.1 C 94 % 1025.1 mbar 0.00 mm 3.1 km/h NW 324 0 min 0.0 UV-I 0 W/m 3.1 C 6.4 km/h
10.12.2018 23:24 3.1 C 94 % 1025.1 mbar 0.00 mm 2.9 km/h NW 317 0 min 0.0 UV-I 0 W/m 3.1 C 4.8 km/h
10.12.2018 23:22 3.1 C 94 % 1025.0 mbar 0.00 mm 1.5 km/h W 277 0 min 0.0 UV-I 0 W/m 3.1 C 4.8 km/h
10.12.2018 23:20 3.1 C 94 % 1024.9 mbar 0.00 mm 0.0 km/h W 276 0 min 0.0 UV-I 0 W/m 3.1 C 0.0 km/h
10.12.2018 23:18 3.0 C 94 % 1024.9 mbar 0.00 mm 1.1 km/h W 276 0 min 0.0 UV-I 0 W/m 3.0 C 3.2 km/h
10.12.2018 23:16 3.0 C 94 % 1024.8 mbar 0.00 mm 2.2 km/h W 276 0 min 0.0 UV-I 0 W/m 3.0 C 3.2 km/h
10.12.2018 23:14 3.0 C 94 % 1024.9 mbar 0.00 mm 2.0 km/h W 276 0 min 0.0 UV-I 0 W/m 3.0 C 4.8 km/h
10.12.2018 23:12 3.0 C 94 % 1024.9 mbar 0.00 mm 4.3 km/h W 276 0 min 0.0 UV-I 0 W/m 3.0 C 4.8 km/h
10.12.2018 23:10 3.0 C 94 % 1024.9 mbar 0.00 mm 4.9 km/h W 269 0 min 0.0 UV-I 0 W/m 3.0 C 6.4 km/h
10.12.2018 23:08 3.0 C 94 % 1024.9 mbar 0.00 mm 2.7 km/h W-SW 252 0 min 0.0 UV-I 0 W/m 3.0 C 4.8 km/h
10.12.2018 23:06 3.1 C 94 % 1024.9 mbar 0.00 mm 0.0 km/h SW 229 0 min 0.0 UV-I 0 W/m 3.1 C 1.6 km/h
10.12.2018 23:04 3.1 C 94 % 1024.9 mbar 0.00 mm 0.0 km/h SW 229 0 min 0.0 UV-I 0 W/m 3.1 C 0.0 km/h
10.12.2018 23:02 3.1 C 94 % 1024.9 mbar 0.00 mm 0.1 km/h SW 229 0 min 0.0 UV-I 0 W/m 3.1 C 1.6 km/h
10.12.2018 23:00 3.1 C 94 % 1024.9 mbar 0.00 mm 1.7 km/h SW 229 0 min 0.0 UV-I 0 W/m 3.1 C 3.2 km/h
10.12.2018 22:58 3.1 C 94 % 1025.0 mbar 0.00 mm 2.5 km/h SW 229 0 min 0.0 UV-I 0 W/m 3.1 C 3.2 km/h
10.12.2018 22:56 3.0 C 94 % 1025.2 mbar 0.00 mm 3.3 km/h SW 229 0 min 0.0 UV-I 0 W/m 3.0 C 4.8 km/h
10.12.2018 22:54 3.0 C 94 % 1025.2 mbar 0.00 mm 4.2 km/h SW 229 0 min 0.0 UV-I 0 W/m 3.0 C 4.8 km/h
10.12.2018 22:52 3.0 C 94 % 1025.2 mbar 0.00 mm 3.5 km/h W-SW 239 0 min 0.0 UV-I 0 W/m 3.0 C 4.8 km/h
10.12.2018 22:50 2.9 C 94 % 1025.2 mbar 0.00 mm 1.5 km/h W-SW 239 0 min 0.0 UV-I 0 W/m 2.9 C 3.2 km/h
10.12.2018 22:48 2.9 C 94 % 1025.1 mbar 0.00 mm 1.1 km/h W-SW 239 0 min 0.0 UV-I 0 W/m 2.9 C 1.6 km/h
10.12.2018 22:46 2.9 C 94 % 1025.1 mbar 0.00 mm 2.3 km/h W-SW 239 0 min 0.0 UV-I 0 W/m 2.9 C 3.2 km/h
10.12.2018 22:44 2.9 C 94 % 1025.1 mbar 0.00 mm 5.1 km/h W-SW 239 0 min 0.0 UV-I 0 W/m 2.9 C 6.4 km/h
10.12.2018 22:42 2.8 C 94 % 1025.0 mbar 0.00 mm 6.6 km/h W-SW 240 0 min 0.0 UV-I 0 W/m 2.6 C 8.0 km/h
10.12.2018 22:40 2.8 C 94 % 1025.0 mbar 0.00 mm 6.4 km/h SW 229 0 min 0.0 UV-I 0 W/m 2.8 C 9.7 km/h
10.12.2018 22:38 2.8 C 93 % 1025.0 mbar 0.00 mm 7.8 km/h W-SW 252 0 min 0.0 UV-I 0 W/m 1.5 C 11.3 km/h
10.12.2018 22:36 2.8 C 93 % 1025.0 mbar 0.00 mm 6.2 km/h W 271 0 min 0.0 UV-I 0 W/m 2.8 C 8.0 km/h
10.12.2018 22:34 2.8 C 93 % 1025.0 mbar 0.00 mm 3.0 km/h W-SW 249 0 min 0.0 UV-I 0 W/m 2.8 C 6.4 km/h
10.12.2018 22:32 2.7 C 93 % 1024.9 mbar 0.00 mm 3.7 km/h W 261 0 min 0.0 UV-I 0 W/m 2.7 C 4.8 km/h
10.12.2018 22:30 2.8 C 92 % 1024.9 mbar 0.00 mm 2.8 km/h W 269 0 min 0.0 UV-I 0 W/m 2.8 C 4.8 km/h
10.12.2018 22:28 2.8 C 92 % 1024.7 mbar 0.00 mm 0.7 km/h W-SW 252 0 min 0.0 UV-I 0 W/m 2.8 C 3.2 km/h
10.12.2018 22:26 2.8 C 92 % 1024.7 mbar 0.00 mm 4.2 km/h W-SW 252 0 min 0.0 UV-I 0 W/m 2.8 C 6.4 km/h
10.12.2018 22:24 2.8 C 92 % 1024.7 mbar 0.00 mm 2.6 km/h W 268 0 min 0.0 UV-I 0 W/m 2.8 C 4.8 km/h
10.12.2018 22:22 2.8 C 92 % 1024.7 mbar 0.00 mm 0.0 km/h W 270 0 min 0.0 UV-I 0 W/m 2.8 C 0.0 km/h
10.12.2018 22:20 2.9 C 92 % 1024.7 mbar 0.00 mm 0.3 km/h W 270 0 min 0.0 UV-I 0 W/m 2.9 C 1.6 km/h
10.12.2018 22:18 2.9 C 92 % 1024.8 mbar 0.00 mm 0.6 km/h W 270 0 min 0.0 UV-I 0 W/m 2.9 C 3.2 km/h
10.12.2018 22:16 3.0 C 92 % 1024.8 mbar 0.00 mm 0.0 km/h W 270 0 min 0.0 UV-I 0 W/m 3.0 C 0.0 km/h
10.12.2018 22:14 3.1 C 92 % 1024.8 mbar 0.00 mm 0.8 km/h W 270 0 min 0.0 UV-I 0 W/m 3.1 C 3.2 km/h
10.12.2018 22:12 3.1 C 92 % 1024.8 mbar 0.00 mm 0.0 km/h W 270 0 min 0.0 UV-I 0 W/m 3.1 C 0.0 km/h
10.12.2018 22:10 3.2 C 92 % 1024.8 mbar 0.00 mm 0.0 km/h W 270 0 min 0.0 UV-I 0 W/m 3.2 C 1.6 km/h
10.12.2018 22:08 3.2 C 92 % 1024.7 mbar 0.00 mm 1.2 km/h W 270 0 min 0.0 UV-I 0 W/m 3.2 C 1.6 km/h
10.12.2018 22:06 3.2 C 92 % 1024.7 mbar 0.00 mm 3.1 km/h W 270 0 min 0.0 UV-I 0 W/m 3.2 C 4.8 km/h
10.12.2018 22:04 3.2 C 92 % 1024.7 mbar 0.00 mm 3.0 km/h W 270 0 min 0.0 UV-I 0 W/m 3.2 C 4.8 km/h
10.12.2018 22:02 3.2 C 92 % 1024.7 mbar 0.00 mm 3.4 km/h W 270 0 min 0.0 UV-I 0 W/m 3.2 C 4.8 km/h
10.12.2018 22:00 3.3 C 91 % 1024.7 mbar 0.00 mm 2.1 km/h W 270 0 min 0.0 UV-I 0 W/m 3.3 C 3.2 km/h
10.12.2018 21:58 3.3 C 91 % 1024.8 mbar 0.00 mm 3.0 km/h W 270 0 min 0.0 UV-I 0 W/m 3.3 C 4.8 km/h
10.12.2018 21:56 3.3 C 91 % 1024.8 mbar 0.00 mm 5.0 km/h W 270 0 min 0.0 UV-I 0 W/m 3.3 C 6.4 km/h
10.12.2018 21:54 3.3 C 91 % 1024.9 mbar 0.00 mm 6.5 km/h W 266 0 min 0.0 UV-I 0 W/m 3.2 C 9.7 km/h
10.12.2018 21:52 3.3 C 91 % 1024.8 mbar 0.00 mm 8.3 km/h W 270 0 min 0.0 UV-I 0 W/m 1.6 C 11.3 km/h
10.12.2018 21:50 3.3 C 91 % 1024.8 mbar 0.00 mm 5.7 km/h W 270 0 min 0.0 UV-I 0 W/m 3.3 C 6.4 km/h
10.12.2018 21:48 3.4 C 91 % 1024.6 mbar 0.00 mm 2.4 km/h W 271 0 min 0.0 UV-I 0 W/m 3.4 C 6.4 km/h
10.12.2018 21:46 3.4 C 91 % 1024.6 mbar 0.00 mm 3.5 km/h W 270 0 min 0.0 UV-I 0 W/m 3.4 C 4.8 km/h
10.12.2018 21:44 3.4 C 91 % 1024.6 mbar 0.00 mm 3.1 km/h W 276 0 min 0.0 UV-I 0 W/m 3.4 C 4.8 km/h
10.12.2018 21:42 3.5 C 91 % 1024.7 mbar 0.00 mm 5.8 km/h W 276 0 min 0.0 UV-I 0 W/m 3.5 C 9.7 km/h
10.12.2018 21:40 3.6 C 90 % 1024.8 mbar 0.00 mm 5.0 km/h W 281 0 min 0.0 UV-I 0 W/m 3.6 C 6.4 km/h
10.12.2018 21:38 3.7 C 90 % 1024.8 mbar 0.00 mm 4.4 km/h W 270 0 min 0.0 UV-I 0 W/m 3.7 C 6.4 km/h
10.12.2018 21:36 3.8 C 90 % 1024.8 mbar 0.00 mm 5.8 km/h W-SW 243 0 min 0.0 UV-I 0 W/m 3.8 C 8.0 km/h
10.12.2018 21:34 3.8 C 90 % 1024.8 mbar 0.00 mm 6.9 km/h W-SW 255 0 min 0.0 UV-I 0 W/m 3.3 C 8.0 km/h
10.12.2018 21:32 3.9 C 90 % 1024.7 mbar 0.00 mm 5.8 km/h W 262 0 min 0.0 UV-I 0 W/m 3.9 C 8.0 km/h
10.12.2018 21:30 4.0 C 90 % 1024.8 mbar 0.00 mm 5.6 km/h W-SW 246 0 min 0.0 UV-I 0 W/m 4.0 C 6.4 km/h
10.12.2018 21:28 4.1 C 90 % 1024.7 mbar 0.00 mm 5.8 km/h W-SW 246 0 min 0.0 UV-I 0 W/m 4.1 C 6.4 km/h
10.12.2018 21:26 4.1 C 90 % 1024.7 mbar 0.00 mm 6.1 km/h W-SW 246 0 min 0.0 UV-I 0 W/m 4.1 C 8.0 km/h
10.12.2018 21:24 4.2 C 90 % 1024.7 mbar 0.00 mm 6.8 km/h W-SW 244 0 min 0.0 UV-I 0 W/m 3.8 C 8.0 km/h
10.12.2018 21:22 4.2 C 90 % 1024.7 mbar 0.00 mm 6.7 km/h W-SW 239 0 min 0.0 UV-I 0 W/m 3.9 C 8.0 km/h
10.12.2018 21:20 4.2 C 89 % 1024.7 mbar 0.00 mm 4.0 km/h W 272 0 min 0.0 UV-I 0 W/m 4.2 C 6.4 km/h
10.12.2018 21:18 4.2 C 89 % 1024.8 mbar 0.00 mm 2.3 km/h N-NO 15 0 min 0.0 UV-I 0 W/m 4.2 C 4.8 km/h
10.12.2018 21:16 4.2 C 89 % 1024.8 mbar 0.00 mm 3.6 km/h N-NO 29 0 min 0.0 UV-I 0 W/m 4.2 C 6.4 km/h
10.12.2018 21:14 4.2 C 89 % 1024.7 mbar 0.00 mm 4.6 km/h N-NO 29 0 min 0.0 UV-I 0 W/m 4.2 C 9.7 km/h
10.12.2018 21:12 4.3 C 89 % 1024.6 mbar 0.00 mm 5.9 km/h N-NO 32 0 min 0.0 UV-I 0 W/m 4.3 C 8.0 km/h
10.12.2018 21:10 4.3 C 89 % 1024.7 mbar 0.00 mm 3.1 km/h N-NO 14 0 min 0.0 UV-I 0 W/m 4.3 C 6.4 km/h
10.12.2018 21:08 4.3 C 89 % 1024.7 mbar 0.00 mm 3.1 km/h NO 51 0 min 0.0 UV-I 0 W/m 4.3 C 4.8 km/h
10.12.2018 21:06 4.3 C 89 % 1024.8 mbar 0.00 mm 3.5 km/h O 81 0 min 0.0 UV-I 0 W/m 4.3 C 4.8 km/h
10.12.2018 21:04 4.3 C 89 % 1024.7 mbar 0.00 mm 1.6 km/h O-SO 117 0 min 0.0 UV-I 0 W/m 4.3 C 3.2 km/h
10.12.2018 21:02 4.3 C 89 % 1024.7 mbar 0.00 mm 2.2 km/h O-SO 117 0 min 0.0 UV-I 0 W/m 4.3 C 3.2 km/h
10.12.2018 21:00 4.4 C 88 % 1024.8 mbar 0.00 mm 5.7 km/h O-SO 117 0 min 0.0 UV-I 0 W/m 4.4 C 8.0 km/h
10.12.2018 20:58 4.5 C 87 % 1024.8 mbar 0.00 mm 6.2 km/h SO 131 0 min 0.0 UV-I 0 W/m 4.5 C 8.0 km/h
10.12.2018 20:56 4.5 C 87 % 1024.8 mbar 0.00 mm 5.1 km/h SO 136 0 min 0.0 UV-I 0 W/m 4.5 C 8.0 km/h
10.12.2018 20:54 4.6 C 87 % 1024.8 mbar 0.00 mm 3.4 km/h O-NO 64 0 min 0.0 UV-I 0 W/m 4.6 C 6.4 km/h
10.12.2018 20:52 4.6 C 87 % 1024.7 mbar 0.00 mm 4.8 km/h NO 52 0 min 0.0 UV-I 0 W/m 4.6 C 6.4 km/h
10.12.2018 20:50 4.5 C 87 % 1024.7 mbar 0.00 mm 6.1 km/h O-NO 64 0 min 0.0 UV-I 0 W/m 4.5 C 8.0 km/h
10.12.2018 20:48 4.5 C 87 % 1024.6 mbar 0.00 mm 5.2 km/h NO 43 0 min 0.0 UV-I 0 W/m 4.5 C 8.0 km/h
10.12.2018 20:46 4.5 C 87 % 1024.6 mbar 0.00 mm 1.4 km/h O 100 0 min 0.0 UV-I 0 W/m 4.5 C 3.2 km/h
10.12.2018 20:44 4.4 C 86 % 1024.5 mbar 0.00 mm 2.9 km/h O-SO 105 0 min 0.0 UV-I 0 W/m 4.4 C 6.4 km/h
10.12.2018 20:42 4.4 C 87 % 1024.4 mbar 0.00 mm 4.4 km/h O-SO 116 0 min 0.0 UV-I 0 W/m 4.4 C 6.4 km/h
10.12.2018 20:40 4.4 C 87 % 1024.4 mbar 0.00 mm 3.5 km/h S-SO 156 0 min 0.0 UV-I 0 W/m 4.4 C 4.8 km/h
10.12.2018 20:38 4.4 C 87 % 1024.4 mbar 0.00 mm 3.8 km/h O-SO 113 0 min 0.0 UV-I 0 W/m 4.4 C 6.4 km/h
10.12.2018 20:36 4.3 C 88 % 1024.3 mbar 0.00 mm 0.6 km/h O-NO 72 0 min 0.0 UV-I 0 W/m 4.3 C 3.2 km/h
10.12.2018 20:34 4.3 C 88 % 1024.3 mbar 0.00 mm 0.2 km/h O-NO 72 0 min 0.0 UV-I 0 W/m 4.3 C 1.6 km/h
10.12.2018 20:32 4.3 C 88 % 1024.2 mbar 0.00 mm 2.5 km/h O-NO 72 0 min 0.0 UV-I 0 W/m 4.3 C 4.8 km/h
10.12.2018 20:30 4.2 C 88 % 1024.3 mbar 0.00 mm 1.1 km/h O-NO 71 0 min 0.0 UV-I 0 W/m 4.2 C 4.8 km/h
10.12.2018 20:28 4.2 C 89 % 1024.3 mbar 0.00 mm 1.5 km/h N 360 0 min 0.0 UV-I 0 W/m 4.2 C 4.8 km/h
10.12.2018 20:26 4.1 C 90 % 1024.3 mbar 0.00 mm 4.1 km/h O 90 0 min 0.0 UV-I 0 W/m 4.1 C 8.0 km/h
10.12.2018 20:24 4.0 C 91 % 1024.4 mbar 0.00 mm 7.8 km/h N-NW 343 0 min 0.0 UV-I 0 W/m 2.7 C 12.9 km/h
10.12.2018 20:22 4.0 C 91 % 1024.4 mbar 0.00 mm 4.2 km/h N-NO 17 0 min 0.0 UV-I 0 W/m 4.0 C 6.4 km/h
10.12.2018 20:20 4.0 C 91 % 1024.4 mbar 0.00 mm 8.4 km/h W-NW 287 0 min 0.0 UV-I 0 W/m 2.2 C 16.1 km/h
10.12.2018 20:18 4.1 C 91 % 1024.4 mbar 0.00 mm 11.1 km/h W-SW 253 0 min 0.0 UV-I 0 W/m 0.3 C 17.7 km/h
10.12.2018 20:16 4.2 C 91 % 1024.4 mbar 0.00 mm 4.4 km/h O 96 0 min 0.0 UV-I 0 W/m 4.2 C 9.7 km/h
10.12.2018 20:14 4.2 C 91 % 1024.6 mbar 0.00 mm 4.8 km/h W-SW 249 0 min 0.0 UV-I 0 W/m 4.2 C 6.4 km/h
10.12.2018 20:12 4.2 C 91 % 1024.6 mbar 0.00 mm 5.2 km/h W-SW 253 0 min 0.0 UV-I 0 W/m 4.2 C 6.4 km/h
10.12.2018 20:10 4.2 C 90 % 1024.5 mbar 0.00 mm 6.4 km/h W 272 0 min 0.0 UV-I 0 W/m 4.2 C 11.3 km/h
10.12.2018 20:08 4.3 C 90 % 1024.5 mbar 0.00 mm 4.1 km/h S 185 0 min 0.0 UV-I 0 W/m 4.3 C 4.8 km/h
10.12.2018 20:06 4.3 C 90 % 1024.4 mbar 0.00 mm 1.6 km/h S 185 0 min 0.0 UV-I 0 W/m 4.3 C 4.8 km/h
10.12.2018 20:04 4.3 C 90 % 1024.4 mbar 0.00 mm 3.5 km/h W-SW 251 0 min 0.0 UV-I 0 W/m 4.3 C 6.4 km/h
10.12.2018 20:02 4.3 C 90 % 1024.6 mbar 0.00 mm 7.5 km/h W-SW 256 0 min 0.0 UV-I 0 W/m 3.3 C 11.3 km/h
10.12.2018 20:00 4.3 C 90 % 1024.6 mbar 0.00 mm 8.6 km/h W 267 0 min 0.0 UV-I 0 W/m 2.4 C 11.3 km/h
10.12.2018 19:58 4.4 C 89 % 1024.6 mbar 0.00 mm 4.1 km/h W-SW 237 0 min 0.0 UV-I 0 W/m 4.4 C 8.0 km/h
10.12.2018 19:56 4.4 C 89 % 1024.6 mbar 0.00 mm 6.0 km/h SW 214 0 min 0.0 UV-I 0 W/m 4.4 C 11.3 km/h
10.12.2018 19:54 4.4 C 89 % 1024.6 mbar 0.00 mm 6.9 km/h W 259 0 min 0.0 UV-I 0 W/m 4.0 C 11.3 km/h
10.12.2018 19:52 4.5 C 89 % 1024.6 mbar 0.00 mm 6.0 km/h S 175 0 min 0.0 UV-I 0 W/m 4.5 C 8.0 km/h
10.12.2018 19:50 4.6 C 89 % 1024.6 mbar 0.00 mm 8.1 km/h S-SO 154 0 min 0.0 UV-I 0 W/m 3.1 C 9.7 km/h
10.12.2018 19:48 4.7 C 88 % 1024.7 mbar 0.00 mm 8.2 km/h S-SO 162 0 min 0.0 UV-I 0 W/m 3.1 C 9.7 km/h
10.12.2018 19:46 4.8 C 88 % 1024.7 mbar 0.00 mm 7.4 km/h S 180 0 min 0.0 UV-I 0 W/m 3.9 C 8.0 km/h
10.12.2018 19:44 4.9 C 87 % 1024.7 mbar 0.00 mm 4.3 km/h S 191 0 min 0.0 UV-I 0 W/m 4.9 C 8.0 km/h
10.12.2018 19:42 5.0 C 87 % 1024.7 mbar 0.00 mm 5.0 km/h W 267 0 min 0.0 UV-I 0 W/m 5.0 C 8.0 km/h
10.12.2018 19:40 5.1 C 86 % 1024.7 mbar 0.00 mm 4.8 km/h W-SW 239 0 min 0.0 UV-I 0 W/m 5.1 C 6.4 km/h
10.12.2018 19:38 5.1 C 86 % 1024.6 mbar 0.00 mm 4.0 km/h SO 143 0 min 0.0 UV-I 0 W/m 5.1 C 4.8 km/h
10.12.2018 19:30 5.2 C 85 % 1024.7 mbar 0.20 mm 4.8 km/h N 360 0 min 0.0 UV-I 0 W/m 5.2 C 14.5 km/h
10.12.2018 19:28 5.3 C 84 % 1024.6 mbar 0.00 mm 6.1 km/h N 11 0 min 0.0 UV-I 0 W/m 5.3 C 9.7 km/h
10.12.2018 19:26 5.3 C 83 % 1024.5 mbar 0.00 mm 5.8 km/h N-NW 341 0 min 0.0 UV-I 0 W/m 5.3 C 9.7 km/h
10.12.2018 19:24 5.3 C 83 % 1024.5 mbar 0.20 mm 8.6 km/h N-NO 29 0 min 0.0 UV-I 0 W/m 3.4 C 12.9 km/h
10.12.2018 19:22 5.3 C 82 % 1024.4 mbar 0.00 mm 7.2 km/h N-NO 21 0 min 0.0 UV-I 0 W/m 4.6 C 12.9 km/h
10.12.2018 19:20 5.2 C 82 % 1024.5 mbar 0.00 mm 4.8 km/h N-NO 21 0 min 0.0 UV-I 0 W/m 5.2 C 8.0 km/h
10.12.2018 19:18 5.2 C 82 % 1024.5 mbar 0.00 mm 4.3 km/h N-NW 345 0 min 0.0 UV-I 0 W/m 5.2 C 9.7 km/h
10.12.2018 19:16 5.2 C 82 % 1024.4 mbar 0.00 mm 6.1 km/h O 87 0 min 0.0 UV-I 0 W/m 5.2 C 9.7 km/h
10.12.2018 19:14 5.2 C 82 % 1024.5 mbar 0.00 mm 3.5 km/h N-NO 25 0 min 0.0 UV-I 0 W/m 5.2 C 6.4 km/h
10.12.2018 19:12 5.1 C 82 % 1024.4 mbar 0.00 mm 4.5 km/h S 175 0 min 0.0 UV-I 0 W/m 5.1 C 8.0 km/h
10.12.2018 19:10 5.1 C 83 % 1024.4 mbar 0.00 mm 4.9 km/h W-SW 240 0 min 0.0 UV-I 0 W/m 5.1 C 12.9 km/h
10.12.2018 19:08 5.1 C 83 % 1024.3 mbar 0.00 mm 4.8 km/h N-NO 12 0 min 0.0 UV-I 0 W/m 5.1 C 8.0 km/h
10.12.2018 19:06 5.1 C 82 % 1024.3 mbar 0.00 mm 5.2 km/h N 2 0 min 0.0 UV-I 0 W/m 5.1 C 8.0 km/h
10.12.2018 19:04 5.2 C 82 % 1024.3 mbar 0.00 mm 4.0 km/h W 280 0 min 0.0 UV-I 0 W/m 5.2 C 9.7 km/h
10.12.2018 19:02 5.2 C 81 % 1024.1 mbar 0.00 mm 4.5 km/h N 7 0 min 0.0 UV-I 0 W/m 5.2 C 8.0 km/h
10.12.2018 19:00 5.2 C 81 % 1024.1 mbar 0.00 mm 4.9 km/h N-NO 14 0 min 0.0 UV-I 0 W/m 5.2 C 6.4 km/h
10.12.2018 18:58 5.3 C 81 % 1024.0 mbar 0.00 mm 4.4 km/h N-NO 14 0 min 0.0 UV-I 0 W/m 5.3 C 6.4 km/h
10.12.2018 18:56 5.3 C 81 % 1024.1 mbar 0.00 mm 4.1 km/h N 4 0 min 0.0 UV-I 0 W/m 5.3 C 6.4 km/h
10.12.2018 18:54 5.3 C 81 % 1024.0 mbar 0.00 mm 4.5 km/h O-NO 73 0 min 0.0 UV-I 0 W/m 5.3 C 8.0 km/h
10.12.2018 18:52 5.3 C 80 % 1024.1 mbar 0.00 mm 4.5 km/h SO 135 0 min 0.0 UV-I 0 W/m 5.3 C 8.0 km/h
10.12.2018 18:50 5.3 C 80 % 1024.1 mbar 0.00 mm 2.6 km/h S-SO 165 0 min 0.0 UV-I 0 W/m 5.3 C 4.8 km/h
10.12.2018 18:48 5.3 C 78 % 1024.1 mbar 0.00 mm 3.2 km/h O-SO 112 0 min 0.0 UV-I 0 W/m 5.3 C 4.8 km/h
10.12.2018 18:46 5.3 C 78 % 1024.1 mbar 0.00 mm 5.4 km/h SO 131 0 min 0.0 UV-I 0 W/m 5.3 C 8.0 km/h
10.12.2018 18:44 5.2 C 77 % 1024.0 mbar 0.00 mm 4.6 km/h SO 145 0 min 0.0 UV-I 0 W/m 5.2 C 11.3 km/h
10.12.2018 18:42 5.1 C 81 % 1023.9 mbar 0.00 mm 4.6 km/h S 191 0 min 0.0 UV-I 0 W/m 5.1 C 8.0 km/h
10.12.2018 18:40 5.1 C 81 % 1024.2 mbar 0.00 mm 4.2 km/h O-NO 66 0 min 0.0 UV-I 0 W/m 5.1 C 8.0 km/h
10.12.2018 18:38 5.1 C 82 % 1024.1 mbar 0.00 mm 3.5 km/h O 91 0 min 0.0 UV-I 0 W/m 5.1 C 6.4 km/h
10.12.2018 18:36 5.1 C 81 % 1024.2 mbar 0.00 mm 4.0 km/h SO 137 0 min 0.0 UV-I 0 W/m 5.1 C 6.4 km/h
10.12.2018 18:34 5.2 C 82 % 1024.3 mbar 0.00 mm 4.7 km/h SO 133 0 min 0.0 UV-I 0 W/m 5.2 C 9.7 km/h
10.12.2018 18:32 5.2 C 82 % 1024.2 mbar 0.00 mm 7.2 km/h S-SO 147 0 min 0.0 UV-I 0 W/m 4.5 C 12.9 km/h
10.12.2018 18:30 5.3 C 82 % 1024.2 mbar 0.00 mm 5.7 km/h O-SO 111 0 min 0.0 UV-I 0 W/m 5.3 C 14.5 km/h
10.12.2018 18:28 5.3 C 82 % 1024.3 mbar 0.00 mm 4.0 km/h SW 235 0 min 0.0 UV-I 0 W/m 5.3 C 8.0 km/h
10.12.2018 18:26 5.4 C 81 % 1024.3 mbar 0.00 mm 7.0 km/h O-NO 72 0 min 0.0 UV-I 0 W/m 4.9 C 12.9 km/h
10.12.2018 18:24 5.4 C 81 % 1024.2 mbar 0.00 mm 5.0 km/h O 87 0 min 0.0 UV-I 0 W/m 5.4 C 6.4 km/h
10.12.2018 18:22 5.4 C 81 % 1024.2 mbar 0.00 mm 2.9 km/h N 3 0 min 0.0 UV-I 0 W/m 5.4 C 4.8 km/h
10.12.2018 18:20 5.3 C 80 % 1024.2 mbar 0.00 mm 1.9 km/h SW 222 0 min 0.0 UV-I 0 W/m 5.3 C 3.2 km/h
10.12.2018 18:18 5.2 C 81 % 1024.1 mbar 0.00 mm 6.5 km/h SW 222 0 min 0.0 UV-I 0 W/m 5.1 C 12.9 km/h
10.12.2018 18:16 5.0 C 82 % 1024.1 mbar 0.00 mm 10.8 km/h W 264 0 min 0.0 UV-I 0 W/m 1.5 C 20.9 km/h
10.12.2018 18:14 4.8 C 82 % 1024.0 mbar 0.00 mm 9.7 km/h NW 320 0 min 0.0 UV-I 0 W/m 2.1 C 17.7 km/h
10.12.2018 18:12 4.7 C 83 % 1023.9 mbar 0.00 mm 6.5 km/h W 275 0 min 0.0 UV-I 0 W/m 4.6 C 9.7 km/h
10.12.2018 18:10 4.6 C 84 % 1023.9 mbar 0.00 mm 12.8 km/h SW 229 0 min 0.0 UV-I 0 W/m -0.2 C 17.7 km/h
10.12.2018 18:08 4.4 C 85 % 1023.9 mbar 0.00 mm 9.7 km/h W 278 0 min 0.0 UV-I 0 W/m 1.6 C 14.5 km/h
10.12.2018 18:06 4.3 C 86 % 1023.9 mbar 0.00 mm 11.7 km/h SW 230 0 min 0.0 UV-I 0 W/m 0.1 C 17.7 km/h
10.12.2018 18:04 4.2 C 87 % 1023.8 mbar 0.00 mm 7.1 km/h W 276 0 min 0.0 UV-I 0 W/m 3.6 C 14.5 km/h
10.12.2018 18:02 4.2 C 87 % 1023.8 mbar 0.00 mm 8.6 km/h SW 225 0 min 0.0 UV-I 0 W/m 2.3 C 14.5 km/h
10.12.2018 18:00 4.1 C 88 % 1023.6 mbar 0.00 mm 7.8 km/h S 180 0 min 0.0 UV-I 0 W/m 2.8 C 11.3 km/h
10.12.2018 17:58 4.1 C 89 % 1023.7 mbar 0.00 mm 5.0 km/h SW 226 0 min 0.0 UV-I 0 W/m 4.1 C 6.4 km/h
10.12.2018 17:56 4.1 C 89 % 1023.7 mbar 0.00 mm 6.9 km/h S-SO 157 0 min 0.0 UV-I 0 W/m 3.7 C 8.0 km/h
10.12.2018 17:54 4.1 C 88 % 1023.9 mbar 0.00 mm 7.0 km/h S 185 0 min 0.0 UV-I 0 W/m 3.6 C 11.3 km/h
10.12.2018 17:52 4.0 C 88 % 1023.7 mbar 0.00 mm 4.9 km/h S-SW 212 0 min 0.0 UV-I 0 W/m 4.0 C 8.0 km/h
10.12.2018 17:50 3.9 C 89 % 1023.8 mbar 0.00 mm 5.5 km/h SW 236 0 min 0.0 UV-I 0 W/m 3.9 C 8.0 km/h
10.12.2018 17:48 3.8 C 90 % 1023.7 mbar 0.20 mm 6.0 km/h W-NW 303 0 min 0.0 UV-I 0 W/m 3.8 C 11.3 km/h
10.12.2018 17:46 3.8 C 90 % 1023.8 mbar 0.00 mm 7.2 km/h W-SW 258 0 min 0.0 UV-I 0 W/m 3.1 C 17.7 km/h
10.12.2018 17:44 3.8 C 90 % 1023.8 mbar 0.00 mm 10.0 km/h W-SW 245 0 min 0.0 UV-I 0 W/m 0.7 C 16.1 km/h
10.12.2018 17:42 3.9 C 90 % 1023.7 mbar 0.00 mm 1.2 km/h W 264 0 min 0.0 UV-I 0 W/m 3.9 C 4.8 km/h
10.12.2018 17:40 3.9 C 90 % 1023.7 mbar 0.00 mm 0.6 km/h W 264 0 min 0.0 UV-I 0 W/m 3.9 C 1.6 km/h
10.12.2018 17:38 3.9 C 90 % 1023.7 mbar 0.00 mm 2.9 km/h W 264 0 min 0.0 UV-I 0 W/m 3.9 C 4.8 km/h
10.12.2018 17:36 3.9 C 90 % 1023.8 mbar 0.00 mm 2.5 km/h W 264 0 min 0.0 UV-I 0 W/m 3.9 C 6.4 km/h
10.12.2018 17:34 3.9 C 90 % 1023.7 mbar 0.00 mm 1.3 km/h W 281 0 min 0.0 UV-I 0 W/m 3.9 C 3.2 km/h
10.12.2018 17:32 3.9 C 90 % 1023.8 mbar 0.00 mm 4.3 km/h W 281 0 min 0.0 UV-I 0 W/m 3.9 C 6.4 km/h
10.12.2018 17:30 3.8 C 90 % 1023.8 mbar 0.00 mm 2.8 km/h W-NW 289 0 min 0.0 UV-I 0 W/m 3.8 C 4.8 km/h
10.12.2018 17:28 3.8 C 90 % 1023.8 mbar 0.00 mm 2.4 km/h N-NW 336 0 min 0.0 UV-I 0 W/m 3.8 C 3.2 km/h
10.12.2018 17:26 3.8 C 90 % 1023.8 mbar 0.00 mm 3.5 km/h N-NW 337 0 min 0.0 UV-I 0 W/m 3.8 C 4.8 km/h
10.12.2018 17:24 3.8 C 90 % 1023.7 mbar 0.00 mm 3.9 km/h N-NW 337 0 min 0.0 UV-I 0 W/m 3.8 C 8.0 km/h
10.12.2018 17:22 3.8 C 90 % 1023.6 mbar 0.00 mm 0.3 km/h S-SW 194 0 min 0.0 UV-I 0 W/m 3.8 C 3.2 km/h
10.12.2018 17:20 3.8 C 89 % 1023.6 mbar 0.00 mm 3.1 km/h S-SW 194 0 min 0.0 UV-I 0 W/m 3.8 C 4.8 km/h
10.12.2018 17:18 3.8 C 89 % 1023.6 mbar 0.00 mm 0.9 km/h W 262 0 min 0.0 UV-I 0 W/m 3.8 C 3.2 km/h
10.12.2018 17:16 3.8 C 89 % 1023.6 mbar 0.00 mm 0.7 km/h W 262 0 min 0.0 UV-I 0 W/m 3.8 C 3.2 km/h
10.12.2018 17:14 3.9 C 89 % 1023.5 mbar 0.00 mm 0.3 km/h W 262 0 min 0.0 UV-I 0 W/m 3.9 C 3.2 km/h
10.12.2018 17:12 3.9 C 89 % 1023.5 mbar 0.00 mm 3.0 km/h W 262 0 min 0.0 UV-I 0 W/m 3.9 C 4.8 km/h
10.12.2018 17:10 3.9 C 89 % 1023.6 mbar 0.00 mm 7.3 km/h W 262 0 min 0.0 UV-I 0 W/m 3.1 C 11.3 km/h
10.12.2018 17:08 4.1 C 88 % 1023.5 mbar 0.00 mm 2.6 km/h W 270 0 min 0.0 UV-I 0 W/m 4.1 C 8.0 km/h
10.12.2018 17:06 4.2 C 88 % 1023.6 mbar 0.00 mm 0.9 km/h S 185 0 min 0.0 UV-I 0 W/m 4.2 C 3.2 km/h
10.12.2018 17:04 4.2 C 88 % 1023.5 mbar 0.00 mm 4.5 km/h SW 224 0 min 0.0 UV-I 0 W/m 4.2 C 8.0 km/h
10.12.2018 17:02 4.2 C 88 % 1023.7 mbar 0.00 mm 3.0 km/h SW 224 0 min 0.0 UV-I 0 W/m 4.2 C 4.8 km/h
10.12.2018 17:00 4.2 C 87 % 1023.8 mbar 0.00 mm 3.4 km/h SW 224 0 min 0.0 UV-I 0 W/m 4.2 C 4.8 km/h
10.12.2018 16:58 4.3 C 87 % 1023.8 mbar 0.00 mm 3.4 km/h O-SO 115 0 min 0.0 UV-I 0 W/m 4.3 C 6.4 km/h
10.12.2018 16:56 4.3 C 88 % 1023.9 mbar 0.00 mm 1.9 km/h S-SO 147 0 min 0.0 UV-I 0 W/m 4.3 C 4.8 km/h
10.12.2018 16:54 4.3 C 88 % 1023.9 mbar 0.00 mm 1.5 km/h S-SW 198 0 min 0.0 UV-I 0 W/m 4.3 C 4.8 km/h
10.12.2018 16:52 4.3 C 88 % 1024.0 mbar 0.00 mm 5.1 km/h W-SW 245 0 min 0.0 UV-I 0 W/m 4.3 C 8.0 km/h
10.12.2018 16:50 4.4 C 88 % 1024.0 mbar 0.00 mm 6.1 km/h W-SW 247 0 min 0.0 UV-I 0 W/m 4.4 C 11.3 km/h
10.12.2018 16:48 4.5 C 88 % 1023.9 mbar 0.00 mm 1.9 km/h S-SO 154 0 min 0.0 UV-I 0 W/m 4.5 C 6.4 km/h
10.12.2018 16:46 4.6 C 88 % 1024.0 mbar 0.00 mm 4.4 km/h SO 145 0 min 0.0 UV-I 0 W/m 4.6 C 9.7 km/h
10.12.2018 16:44 4.6 C 88 % 1023.9 mbar 0.00 mm 3.6 km/h SO 143 0 min 0.0 UV-I 0 W/m 4.6 C 6.4 km/h
10.12.2018 16:42 4.7 C 88 % 1024.0 mbar 0.00 mm 2.4 km/h S-SW 205 0 min 0.0 UV-I 0 W/m 4.7 C 3.2 km/h
10.12.2018 16:40 4.7 C 88 % 1024.1 mbar 0.00 mm 1.1 km/h S-SW 205 0 min 0.0 UV-I 0 W/m 4.7 C 3.2 km/h
10.12.2018 16:38 4.7 C 88 % 1024.1 mbar 0.00 mm 3.3 km/h S-SW 205 0 min 0.0 UV-I 0 W/m 4.7 C 4.8 km/h
10.12.2018 16:36 4.7 C 87 % 1024.2 mbar 0.00 mm 3.1 km/h W-SW 253 0 min 0.0 UV-I 0 W/m 4.7 C 4.8 km/h
10.12.2018 16:34 4.8 C 87 % 1024.2 mbar 0.00 mm 0.0 km/h W 270 0 min 0.0 UV-I 0 W/m 4.8 C 0.0 km/h
10.12.2018 16:32 4.8 C 87 % 1024.2 mbar 0.00 mm 0.2 km/h W 270 0 min 0.0 UV-I 0 W/m 4.8 C 3.2 km/h
10.12.2018 16:30 4.8 C 87 % 1024.3 mbar 0.00 mm 1.8 km/h W 270 0 min 0.0 UV-I 0 W/m 4.8 C 4.8 km/h
10.12.2018 16:28 4.9 C 87 % 1024.3 mbar 0.00 mm 3.5 km/h W 269 0 min 0.0 UV-I 0 W/m 4.9 C 4.8 km/h
10.12.2018 16:26 4.9 C 87 % 1024.3 mbar 0.00 mm 0.1 km/h SW 235 0 min 0.0 UV-I 0 W/m 4.9 C 1.6 km/h
10.12.2018 16:24 4.9 C 87 % 1024.2 mbar 0.00 mm 0.0 km/h SW 235 0 min 0.0 UV-I 0 W/m 4.9 C 0.0 km/h
10.12.2018 16:22 5.0 C 86 % 1024.2 mbar 0.00 mm 2.9 km/h SW 235 0 min 0.0 UV-I 5 W/m 5.0 C 6.4 km/h
10.12.2018 16:20 5.1 C 86 % 1024.2 mbar 0.00 mm 6.6 km/h SW 235 0 min 0.0 UV-I 5 W/m 4.9 C 8.0 km/h
10.12.2018 16:18 5.1 C 86 % 1024.2 mbar 0.00 mm 4.6 km/h W-SW 258 0 min 0.0 UV-I 7 W/m 5.1 C 8.0 km/h
10.12.2018 16:16 5.2 C 86 % 1024.1 mbar 0.00 mm 4.6 km/h SO 143 0 min 0.0 UV-I 9 W/m 5.2 C 6.4 km/h
10.12.2018 16:14 5.3 C 86 % 1024.2 mbar 0.00 mm 5.9 km/h SW 219 0 min 0.0 UV-I 11 W/m 5.3 C 8.0 km/h
10.12.2018 16:12 5.3 C 85 % 1024.2 mbar 0.00 mm 6.2 km/h W-SW 239 0 min 0.0 UV-I 11 W/m 5.3 C 8.0 km/h
10.12.2018 16:10 5.3 C 84 % 1024.3 mbar 0.00 mm 4.6 km/h SW 216 0 min 0.0 UV-I 12 W/m 5.3 C 8.0 km/h
10.12.2018 16:08 5.3 C 84 % 1024.3 mbar 0.00 mm 3.1 km/h S 189 0 min 0.0 UV-I 14 W/m 5.3 C 6.4 km/h
10.12.2018 16:06 5.4 C 84 % 1024.2 mbar 0.00 mm 1.5 km/h NO 53 0 min 0.0 UV-I 14 W/m 5.4 C 3.2 km/h
10.12.2018 16:04 5.4 C 85 % 1024.3 mbar 0.00 mm 2.5 km/h W-NW 297 0 min 0.0 UV-I 16 W/m 5.4 C 4.8 km/h
10.12.2018 16:02 5.5 C 86 % 1024.3 mbar 0.00 mm 3.5 km/h N-NW 347 0 min 0.0 UV-I 19 W/m 5.5 C 6.4 km/h
10.12.2018 16:00 5.6 C 86 % 1024.3 mbar 0.00 mm 4.5 km/h S-SO 161 0 min 0.0 UV-I 21 W/m 5.6 C 6.4 km/h
_ Min-Zeit 07:34 14:10 14:56 - 16:24 - - - - - 03:32 16:24
Minimum _ 1.3 C 76 % 1023.4 mbar - 0.0 km/h - - - - - -3.5 C 0.0 km/h
_ Max-Zeit 16:00 03:26 10:14 17:48 18:10 - - 10:46 12:06 12:50 16:00 18:16
Maximum _ 5.7 C 96 % 1025.5 mbar 0.20 mm 12.8 km/h
SW
- - 2 min 0.7 UV-I 411 W/m 5.6 C 20.9 km/h
W
Durchschnitt _ 3.4 C 90 % 1024.6 mbar #2.60 mm 3.1 km/h W-SW - #56 min. 0.6 UV-I 134 W/m 3.3 C 5.0 km/h